<?xml version="1.0" encoding="UTF-8" standalone="no" ?>
<gpx xmlns="http://www.topografix.com/GPX/1/1" xmlns:xsi="http://www.w3.org/2001/XMLSchema-instance" xsi:schemaLocation="http://www.topografix.com/GPX/1/1 http://www.topografix.com/GPX/1/1/gpx.xsd" version="1.1" creator="VisuGPX - https://www.visugpx.com">
  <metadata>
    <name>Rando autour du château d\'Aumelas</name>
    <desc><![CDATA[Promenade dans la garrigue .
]]></desc>
  </metadata>
  <trk>
    <name><![CDATA[Rando autour du chateau d'Aumelas]]></name>
    <trkseg>
      <trkpt lat="43.59934" lon="3.6284">
        <ele>261.75</ele>
        <time>2015-09-18T12:36:24Z</time>
      </trkpt>
      <trkpt lat="43.59937" lon="3.62831">
        <ele>262.16</ele>
        <time>2015-09-18T12:36:38Z</time>
      </trkpt>
      <trkpt lat="43.59937" lon="3.62833">
        <ele>261.42</ele>
        <time>2015-09-18T12:36:42Z</time>
      </trkpt>
      <trkpt lat="43.59936" lon="3.62834">
        <ele>261.5</ele>
        <time>2015-09-18T12:36:43Z</time>
      </trkpt>
      <trkpt lat="43.59932" lon="3.62838">
        <ele>261.81</ele>
        <time>2015-09-18T12:37:01Z</time>
      </trkpt>
      <trkpt lat="43.59935" lon="3.62837">
        <ele>261.37</ele>
        <time>2015-09-18T12:37:12Z</time>
      </trkpt>
      <trkpt lat="43.59931" lon="3.6284">
        <ele>261.41</ele>
        <time>2015-09-18T12:37:30Z</time>
      </trkpt>
      <trkpt lat="43.5993" lon="3.62842">
        <ele>261.69</ele>
        <time>2015-09-18T12:38:03Z</time>
      </trkpt>
      <trkpt lat="43.5993" lon="3.62846">
        <ele>262.16</ele>
        <time>2015-09-18T12:38:25Z</time>
      </trkpt>
      <trkpt lat="43.59928" lon="3.6285">
        <ele>261.76</ele>
        <time>2015-09-18T12:38:43Z</time>
      </trkpt>
      <trkpt lat="43.59926" lon="3.62852">
        <ele>261.61</ele>
        <time>2015-09-18T12:38:46Z</time>
      </trkpt>
      <trkpt lat="43.59922" lon="3.62858">
        <ele>261.2</ele>
        <time>2015-09-18T12:38:52Z</time>
      </trkpt>
      <trkpt lat="43.59919" lon="3.62861">
        <ele>263.08</ele>
        <time>2015-09-18T12:39:06Z</time>
      </trkpt>
      <trkpt lat="43.59919" lon="3.62861">
        <ele>261.13</ele>
        <time>2015-09-18T12:39:08Z</time>
      </trkpt>
      <trkpt lat="43.59924" lon="3.62855">
        <ele>263.11</ele>
        <time>2015-09-18T12:39:13Z</time>
      </trkpt>
      <trkpt lat="43.59924" lon="3.6285">
        <ele>261.46</ele>
        <time>2015-09-18T12:39:22Z</time>
      </trkpt>
      <trkpt lat="43.5992" lon="3.62859">
        <ele>264.06</ele>
        <time>2015-09-18T12:39:39Z</time>
      </trkpt>
      <trkpt lat="43.59919" lon="3.62858">
        <ele>261.89</ele>
        <time>2015-09-18T12:39:57Z</time>
      </trkpt>
      <trkpt lat="43.59919" lon="3.62858">
        <ele>262.6</ele>
        <time>2015-09-18T12:40:11Z</time>
      </trkpt>
      <trkpt lat="43.5992" lon="3.62858">
        <ele>262.67</ele>
        <time>2015-09-18T12:40:34Z</time>
      </trkpt>
      <trkpt lat="43.5992" lon="3.62861">
        <ele>262.85</ele>
        <time>2015-09-18T12:40:50Z</time>
      </trkpt>
      <trkpt lat="43.59912" lon="3.62878">
        <ele>262.74</ele>
        <time>2015-09-18T12:41:07Z</time>
      </trkpt>
      <trkpt lat="43.59911" lon="3.6288">
        <ele>273.99</ele>
        <time>2015-09-18T12:41:09Z</time>
      </trkpt>
      <trkpt lat="43.59908" lon="3.62885">
        <ele>272.51</ele>
        <time>2015-09-18T12:41:14Z</time>
      </trkpt>
      <trkpt lat="43.59895" lon="3.62908">
        <ele>271.48</ele>
        <time>2015-09-18T12:41:37Z</time>
      </trkpt>
      <trkpt lat="43.59886" lon="3.62924">
        <ele>271.54</ele>
        <time>2015-09-18T12:41:50Z</time>
      </trkpt>
      <trkpt lat="43.59875" lon="3.62945">
        <ele>270.92</ele>
        <time>2015-09-18T12:42:08Z</time>
      </trkpt>
      <trkpt lat="43.59865" lon="3.62959">
        <ele>270.39</ele>
        <time>2015-09-18T12:42:24Z</time>
      </trkpt>
      <trkpt lat="43.59855" lon="3.62978">
        <ele>271.04</ele>
        <time>2015-09-18T12:42:43Z</time>
      </trkpt>
      <trkpt lat="43.59844" lon="3.62997">
        <ele>271.91</ele>
        <time>2015-09-18T12:43:00Z</time>
      </trkpt>
      <trkpt lat="43.59831" lon="3.63021">
        <ele>272.56</ele>
        <time>2015-09-18T12:43:20Z</time>
      </trkpt>
      <trkpt lat="43.59819" lon="3.6304">
        <ele>273.71</ele>
        <time>2015-09-18T12:43:38Z</time>
      </trkpt>
      <trkpt lat="43.59807" lon="3.63059">
        <ele>273.6</ele>
        <time>2015-09-18T12:43:54Z</time>
      </trkpt>
      <trkpt lat="43.59801" lon="3.63069">
        <ele>274.03</ele>
        <time>2015-09-18T12:44:02Z</time>
      </trkpt>
      <trkpt lat="43.59798" lon="3.63077">
        <ele>274.28</ele>
        <time>2015-09-18T12:44:08Z</time>
      </trkpt>
      <trkpt lat="43.59792" lon="3.63088">
        <ele>274.09</ele>
        <time>2015-09-18T12:44:18Z</time>
      </trkpt>
      <trkpt lat="43.59777" lon="3.63114">
        <ele>274.02</ele>
        <time>2015-09-18T12:44:41Z</time>
      </trkpt>
      <trkpt lat="43.59764" lon="3.63137">
        <ele>274</ele>
        <time>2015-09-18T12:45:00Z</time>
      </trkpt>
      <trkpt lat="43.59749" lon="3.63165">
        <ele>274.31</ele>
        <time>2015-09-18T12:45:23Z</time>
      </trkpt>
      <trkpt lat="43.59745" lon="3.63171">
        <ele>274.22</ele>
        <time>2015-09-18T12:45:28Z</time>
      </trkpt>
      <trkpt lat="43.59741" lon="3.63176">
        <ele>274.45</ele>
        <time>2015-09-18T12:45:33Z</time>
      </trkpt>
      <trkpt lat="43.5973" lon="3.63171">
        <ele>275.64</ele>
        <time>2015-09-18T12:45:45Z</time>
      </trkpt>
      <trkpt lat="43.59719" lon="3.63146">
        <ele>274.37</ele>
        <time>2015-09-18T12:46:03Z</time>
      </trkpt>
      <trkpt lat="43.59709" lon="3.63121">
        <ele>275.38</ele>
        <time>2015-09-18T12:46:21Z</time>
      </trkpt>
      <trkpt lat="43.59701" lon="3.63097">
        <ele>275.17</ele>
        <time>2015-09-18T12:46:38Z</time>
      </trkpt>
      <trkpt lat="43.59692" lon="3.6306">
        <ele>272.9</ele>
        <time>2015-09-18T12:47:02Z</time>
      </trkpt>
      <trkpt lat="43.5968" lon="3.63038">
        <ele>272.17</ele>
        <time>2015-09-18T12:47:20Z</time>
      </trkpt>
      <trkpt lat="43.59667" lon="3.63028">
        <ele>272.11</ele>
        <time>2015-09-18T12:47:33Z</time>
      </trkpt>
      <trkpt lat="43.59651" lon="3.63016">
        <ele>271.97</ele>
        <time>2015-09-18T12:47:49Z</time>
      </trkpt>
      <trkpt lat="43.59632" lon="3.63005">
        <ele>272.17</ele>
        <time>2015-09-18T12:48:08Z</time>
      </trkpt>
      <trkpt lat="43.59614" lon="3.62998">
        <ele>272.11</ele>
        <time>2015-09-18T12:48:26Z</time>
      </trkpt>
      <trkpt lat="43.59606" lon="3.62995">
        <ele>272.96</ele>
        <time>2015-09-18T12:48:36Z</time>
      </trkpt>
      <trkpt lat="43.59599" lon="3.62992">
        <ele>272.74</ele>
        <time>2015-09-18T12:48:41Z</time>
      </trkpt>
      <trkpt lat="43.59597" lon="3.62992">
        <ele>272.71</ele>
        <time>2015-09-18T12:48:43Z</time>
      </trkpt>
      <trkpt lat="43.59579" lon="3.62979">
        <ele>273.33</ele>
        <time>2015-09-18T12:49:01Z</time>
      </trkpt>
      <trkpt lat="43.59558" lon="3.62968">
        <ele>272.83</ele>
        <time>2015-09-18T12:49:22Z</time>
      </trkpt>
      <trkpt lat="43.59539" lon="3.62964">
        <ele>273.49</ele>
        <time>2015-09-18T12:49:42Z</time>
      </trkpt>
      <trkpt lat="43.59524" lon="3.6296">
        <ele>274.6</ele>
        <time>2015-09-18T12:49:56Z</time>
      </trkpt>
      <trkpt lat="43.59508" lon="3.62956">
        <ele>274.78</ele>
        <time>2015-09-18T12:50:12Z</time>
      </trkpt>
      <trkpt lat="43.59491" lon="3.62952">
        <ele>275.32</ele>
        <time>2015-09-18T12:50:29Z</time>
      </trkpt>
      <trkpt lat="43.59471" lon="3.62948">
        <ele>274.87</ele>
        <time>2015-09-18T12:50:49Z</time>
      </trkpt>
      <trkpt lat="43.59465" lon="3.62948">
        <ele>275.2</ele>
        <time>2015-09-18T12:50:55Z</time>
      </trkpt>
      <trkpt lat="43.59447" lon="3.62948">
        <ele>276.57</ele>
        <time>2015-09-18T12:51:14Z</time>
      </trkpt>
      <trkpt lat="43.59425" lon="3.6294">
        <ele>277.82</ele>
        <time>2015-09-18T12:51:34Z</time>
      </trkpt>
      <trkpt lat="43.59404" lon="3.62927">
        <ele>278.67</ele>
        <time>2015-09-18T12:51:54Z</time>
      </trkpt>
      <trkpt lat="43.59387" lon="3.62923">
        <ele>279.21</ele>
        <time>2015-09-18T12:52:10Z</time>
      </trkpt>
      <trkpt lat="43.5937" lon="3.62917">
        <ele>280.59</ele>
        <time>2015-09-18T12:52:26Z</time>
      </trkpt>
      <trkpt lat="43.59356" lon="3.62907">
        <ele>280.44</ele>
        <time>2015-09-18T12:52:40Z</time>
      </trkpt>
      <trkpt lat="43.59338" lon="3.62896">
        <ele>280.89</ele>
        <time>2015-09-18T12:53:00Z</time>
      </trkpt>
      <trkpt lat="43.59323" lon="3.62888">
        <ele>281.13</ele>
        <time>2015-09-18T12:53:15Z</time>
      </trkpt>
      <trkpt lat="43.59317" lon="3.62886">
        <ele>280.9</ele>
        <time>2015-09-18T12:53:20Z</time>
      </trkpt>
      <trkpt lat="43.59299" lon="3.62878">
        <ele>281.36</ele>
        <time>2015-09-18T12:53:38Z</time>
      </trkpt>
      <trkpt lat="43.59279" lon="3.62864">
        <ele>280.72</ele>
        <time>2015-09-18T12:53:59Z</time>
      </trkpt>
      <trkpt lat="43.59266" lon="3.62844">
        <ele>280.32</ele>
        <time>2015-09-18T12:54:16Z</time>
      </trkpt>
      <trkpt lat="43.59256" lon="3.62825">
        <ele>279.58</ele>
        <time>2015-09-18T12:54:33Z</time>
      </trkpt>
      <trkpt lat="43.59245" lon="3.62808">
        <ele>279.11</ele>
        <time>2015-09-18T12:54:48Z</time>
      </trkpt>
      <trkpt lat="43.59233" lon="3.62792">
        <ele>279.62</ele>
        <time>2015-09-18T12:55:03Z</time>
      </trkpt>
      <trkpt lat="43.59218" lon="3.62777">
        <ele>279.71</ele>
        <time>2015-09-18T12:55:21Z</time>
      </trkpt>
      <trkpt lat="43.59206" lon="3.62775">
        <ele>280.76</ele>
        <time>2015-09-18T12:55:35Z</time>
      </trkpt>
      <trkpt lat="43.59192" lon="3.62776">
        <ele>282.15</ele>
        <time>2015-09-18T12:55:49Z</time>
      </trkpt>
      <trkpt lat="43.59174" lon="3.62768">
        <ele>282.52</ele>
        <time>2015-09-18T12:56:05Z</time>
      </trkpt>
      <trkpt lat="43.59155" lon="3.62757">
        <ele>283.58</ele>
        <time>2015-09-18T12:56:24Z</time>
      </trkpt>
      <trkpt lat="43.59139" lon="3.62747">
        <ele>283.94</ele>
        <time>2015-09-18T12:56:41Z</time>
      </trkpt>
      <trkpt lat="43.5912" lon="3.62738">
        <ele>285.14</ele>
        <time>2015-09-18T12:57:00Z</time>
      </trkpt>
      <trkpt lat="43.59107" lon="3.62727">
        <ele>285.94</ele>
        <time>2015-09-18T12:57:14Z</time>
      </trkpt>
      <trkpt lat="43.59098" lon="3.62714">
        <ele>287.2</ele>
        <time>2015-09-18T12:57:28Z</time>
      </trkpt>
      <trkpt lat="43.59087" lon="3.62698">
        <ele>288.32</ele>
        <time>2015-09-18T12:57:44Z</time>
      </trkpt>
      <trkpt lat="43.59073" lon="3.62681">
        <ele>289.55</ele>
        <time>2015-09-18T12:58:02Z</time>
      </trkpt>
      <trkpt lat="43.59061" lon="3.62671">
        <ele>289.68</ele>
        <time>2015-09-18T12:58:16Z</time>
      </trkpt>
      <trkpt lat="43.59055" lon="3.62668">
        <ele>289.14</ele>
        <time>2015-09-18T12:58:22Z</time>
      </trkpt>
      <trkpt lat="43.59043" lon="3.62669">
        <ele>289.89</ele>
        <time>2015-09-18T12:58:34Z</time>
      </trkpt>
      <trkpt lat="43.59042" lon="3.62669">
        <ele>290.16</ele>
        <time>2015-09-18T12:58:35Z</time>
      </trkpt>
      <trkpt lat="43.59037" lon="3.6267">
        <ele>290.38</ele>
        <time>2015-09-18T12:58:40Z</time>
      </trkpt>
      <trkpt lat="43.59019" lon="3.62672">
        <ele>291.26</ele>
        <time>2015-09-18T12:58:57Z</time>
      </trkpt>
      <trkpt lat="43.59015" lon="3.62673">
        <ele>290.14</ele>
        <time>2015-09-18T12:59:02Z</time>
      </trkpt>
      <trkpt lat="43.59001" lon="3.62675">
        <ele>288.78</ele>
        <time>2015-09-18T12:59:17Z</time>
      </trkpt>
      <trkpt lat="43.58987" lon="3.62671">
        <ele>286.8</ele>
        <time>2015-09-18T12:59:33Z</time>
      </trkpt>
      <trkpt lat="43.58975" lon="3.62674">
        <ele>285.12</ele>
        <time>2015-09-18T12:59:48Z</time>
      </trkpt>
      <trkpt lat="43.58967" lon="3.62677">
        <ele>284.37</ele>
        <time>2015-09-18T12:59:57Z</time>
      </trkpt>
      <trkpt lat="43.58953" lon="3.62681">
        <ele>282.82</ele>
        <time>2015-09-18T13:00:14Z</time>
      </trkpt>
      <trkpt lat="43.58939" lon="3.62683">
        <ele>280.62</ele>
        <time>2015-09-18T13:00:30Z</time>
      </trkpt>
      <trkpt lat="43.58922" lon="3.6268">
        <ele>278.19</ele>
        <time>2015-09-18T13:00:48Z</time>
      </trkpt>
      <trkpt lat="43.58914" lon="3.62681">
        <ele>277.13</ele>
        <time>2015-09-18T13:00:57Z</time>
      </trkpt>
      <trkpt lat="43.58901" lon="3.62681">
        <ele>276.37</ele>
        <time>2015-09-18T13:01:11Z</time>
      </trkpt>
      <trkpt lat="43.58885" lon="3.62683">
        <ele>275.74</ele>
        <time>2015-09-18T13:01:26Z</time>
      </trkpt>
      <trkpt lat="43.58881" lon="3.62683">
        <ele>275.14</ele>
        <time>2015-09-18T13:01:30Z</time>
      </trkpt>
      <trkpt lat="43.58866" lon="3.62685">
        <ele>274.81</ele>
        <time>2015-09-18T13:01:46Z</time>
      </trkpt>
      <trkpt lat="43.58848" lon="3.62687">
        <ele>273.88</ele>
        <time>2015-09-18T13:02:05Z</time>
      </trkpt>
      <trkpt lat="43.58831" lon="3.62688">
        <ele>274.17</ele>
        <time>2015-09-18T13:02:21Z</time>
      </trkpt>
      <trkpt lat="43.58812" lon="3.62689">
        <ele>273.1</ele>
        <time>2015-09-18T13:02:40Z</time>
      </trkpt>
      <trkpt lat="43.58796" lon="3.62696">
        <ele>272.62</ele>
        <time>2015-09-18T13:02:56Z</time>
      </trkpt>
      <trkpt lat="43.58782" lon="3.62709">
        <ele>272.43</ele>
        <time>2015-09-18T13:03:12Z</time>
      </trkpt>
      <trkpt lat="43.58768" lon="3.62721">
        <ele>272.16</ele>
        <time>2015-09-18T13:03:28Z</time>
      </trkpt>
      <trkpt lat="43.58758" lon="3.62724">
        <ele>271.83</ele>
        <time>2015-09-18T13:03:37Z</time>
      </trkpt>
      <trkpt lat="43.58746" lon="3.62728">
        <ele>272.66</ele>
        <time>2015-09-18T13:03:48Z</time>
      </trkpt>
      <trkpt lat="43.58744" lon="3.62729">
        <ele>272.24</ele>
        <time>2015-09-18T13:03:51Z</time>
      </trkpt>
      <trkpt lat="43.58729" lon="3.62737">
        <ele>273.3</ele>
        <time>2015-09-18T13:04:04Z</time>
      </trkpt>
      <trkpt lat="43.58717" lon="3.62744">
        <ele>273.17</ele>
        <time>2015-09-18T13:04:17Z</time>
      </trkpt>
      <trkpt lat="43.58713" lon="3.62747">
        <ele>273.5</ele>
        <time>2015-09-18T13:04:22Z</time>
      </trkpt>
      <trkpt lat="43.58697" lon="3.62752">
        <ele>274.16</ele>
        <time>2015-09-18T13:04:39Z</time>
      </trkpt>
      <trkpt lat="43.58693" lon="3.62753">
        <ele>274.25</ele>
        <time>2015-09-18T13:04:43Z</time>
      </trkpt>
      <trkpt lat="43.58685" lon="3.62755">
        <ele>275.92</ele>
        <time>2015-09-18T13:04:51Z</time>
      </trkpt>
      <trkpt lat="43.5867" lon="3.62754">
        <ele>276.38</ele>
        <time>2015-09-18T13:05:06Z</time>
      </trkpt>
      <trkpt lat="43.58656" lon="3.62755">
        <ele>276.54</ele>
        <time>2015-09-18T13:05:21Z</time>
      </trkpt>
      <trkpt lat="43.5865" lon="3.62756">
        <ele>277.07</ele>
        <time>2015-09-18T13:05:27Z</time>
      </trkpt>
      <trkpt lat="43.58646" lon="3.62757">
        <ele>276.77</ele>
        <time>2015-09-18T13:05:30Z</time>
      </trkpt>
      <trkpt lat="43.58633" lon="3.6276">
        <ele>277.35</ele>
        <time>2015-09-18T13:05:42Z</time>
      </trkpt>
      <trkpt lat="43.58632" lon="3.6276">
        <ele>277.31</ele>
        <time>2015-09-18T13:05:53Z</time>
      </trkpt>
      <trkpt lat="43.58619" lon="3.62762">
        <ele>276.96</ele>
        <time>2015-09-18T13:06:10Z</time>
      </trkpt>
      <trkpt lat="43.58603" lon="3.62764">
        <ele>277.85</ele>
        <time>2015-09-18T13:06:28Z</time>
      </trkpt>
      <trkpt lat="43.58587" lon="3.62761">
        <ele>280.11</ele>
        <time>2015-09-18T13:06:44Z</time>
      </trkpt>
      <trkpt lat="43.58567" lon="3.62748">
        <ele>280.36</ele>
        <time>2015-09-18T13:07:04Z</time>
      </trkpt>
      <trkpt lat="43.58554" lon="3.62731">
        <ele>280.67</ele>
        <time>2015-09-18T13:07:22Z</time>
      </trkpt>
      <trkpt lat="43.58544" lon="3.62719">
        <ele>279.35</ele>
        <time>2015-09-18T13:07:36Z</time>
      </trkpt>
      <trkpt lat="43.58542" lon="3.62717">
        <ele>278.91</ele>
        <time>2015-09-18T13:07:39Z</time>
      </trkpt>
      <trkpt lat="43.58532" lon="3.62711">
        <ele>279.03</ele>
        <time>2015-09-18T13:07:51Z</time>
      </trkpt>
      <trkpt lat="43.5853" lon="3.62709">
        <ele>278.84</ele>
        <time>2015-09-18T13:07:53Z</time>
      </trkpt>
      <trkpt lat="43.58519" lon="3.62699">
        <ele>278.47</ele>
        <time>2015-09-18T13:08:07Z</time>
      </trkpt>
      <trkpt lat="43.58508" lon="3.62686">
        <ele>279.34</ele>
        <time>2015-09-18T13:08:20Z</time>
      </trkpt>
      <trkpt lat="43.58507" lon="3.62683">
        <ele>279.29</ele>
        <time>2015-09-18T13:08:22Z</time>
      </trkpt>
      <trkpt lat="43.58503" lon="3.62668">
        <ele>279.35</ele>
        <time>2015-09-18T13:08:34Z</time>
      </trkpt>
      <trkpt lat="43.58503" lon="3.62666">
        <ele>279.31</ele>
        <time>2015-09-18T13:08:35Z</time>
      </trkpt>
      <trkpt lat="43.58499" lon="3.62651">
        <ele>279.93</ele>
        <time>2015-09-18T13:08:45Z</time>
      </trkpt>
      <trkpt lat="43.58498" lon="3.62642">
        <ele>279.31</ele>
        <time>2015-09-18T13:08:50Z</time>
      </trkpt>
      <trkpt lat="43.58496" lon="3.62636">
        <ele>280.22</ele>
        <time>2015-09-18T13:08:54Z</time>
      </trkpt>
      <trkpt lat="43.58496" lon="3.6263">
        <ele>279.67</ele>
        <time>2015-09-18T13:08:58Z</time>
      </trkpt>
      <trkpt lat="43.5849" lon="3.62606">
        <ele>278.32</ele>
        <time>2015-09-18T13:09:15Z</time>
      </trkpt>
      <trkpt lat="43.5848" lon="3.62585">
        <ele>278.38</ele>
        <time>2015-09-18T13:09:32Z</time>
      </trkpt>
      <trkpt lat="43.5847" lon="3.62567">
        <ele>277.89</ele>
        <time>2015-09-18T13:09:48Z</time>
      </trkpt>
      <trkpt lat="43.58458" lon="3.6255">
        <ele>278.32</ele>
        <time>2015-09-18T13:10:03Z</time>
      </trkpt>
      <trkpt lat="43.58452" lon="3.62546">
        <ele>277.9</ele>
        <time>2015-09-18T13:10:11Z</time>
      </trkpt>
      <trkpt lat="43.58439" lon="3.6253">
        <ele>278.32</ele>
        <time>2015-09-18T13:10:27Z</time>
      </trkpt>
      <trkpt lat="43.58422" lon="3.62524">
        <ele>279.2</ele>
        <time>2015-09-18T13:10:44Z</time>
      </trkpt>
      <trkpt lat="43.58411" lon="3.62522">
        <ele>279.84</ele>
        <time>2015-09-18T13:10:56Z</time>
      </trkpt>
      <trkpt lat="43.58401" lon="3.62521">
        <ele>280.2</ele>
        <time>2015-09-18T13:11:05Z</time>
      </trkpt>
      <trkpt lat="43.58399" lon="3.62521">
        <ele>280.05</ele>
        <time>2015-09-18T13:11:07Z</time>
      </trkpt>
      <trkpt lat="43.58384" lon="3.62525">
        <ele>280.52</ele>
        <time>2015-09-18T13:11:23Z</time>
      </trkpt>
      <trkpt lat="43.58381" lon="3.62527">
        <ele>280.71</ele>
        <time>2015-09-18T13:11:27Z</time>
      </trkpt>
      <trkpt lat="43.58378" lon="3.62529">
        <ele>280.32</ele>
        <time>2015-09-18T13:11:30Z</time>
      </trkpt>
      <trkpt lat="43.58369" lon="3.62533">
        <ele>281.69</ele>
        <time>2015-09-18T13:11:40Z</time>
      </trkpt>
      <trkpt lat="43.58357" lon="3.62539">
        <ele>282.16</ele>
        <time>2015-09-18T13:11:55Z</time>
      </trkpt>
      <trkpt lat="43.58347" lon="3.62542">
        <ele>283.39</ele>
        <time>2015-09-18T13:12:06Z</time>
      </trkpt>
      <trkpt lat="43.58341" lon="3.62544">
        <ele>283.14</ele>
        <time>2015-09-18T13:12:14Z</time>
      </trkpt>
      <trkpt lat="43.58338" lon="3.62544">
        <ele>283.57</ele>
        <time>2015-09-18T13:12:17Z</time>
      </trkpt>
      <trkpt lat="43.58335" lon="3.62546">
        <ele>284.06</ele>
        <time>2015-09-18T13:12:20Z</time>
      </trkpt>
      <trkpt lat="43.5832" lon="3.62548">
        <ele>285.08</ele>
        <time>2015-09-18T13:12:37Z</time>
      </trkpt>
      <trkpt lat="43.58319" lon="3.62548">
        <ele>285.64</ele>
        <time>2015-09-18T13:12:38Z</time>
      </trkpt>
      <trkpt lat="43.58315" lon="3.62545">
        <ele>285.58</ele>
        <time>2015-09-18T13:12:42Z</time>
      </trkpt>
      <trkpt lat="43.58301" lon="3.62536">
        <ele>284.18</ele>
        <time>2015-09-18T13:12:56Z</time>
      </trkpt>
      <trkpt lat="43.58288" lon="3.62527">
        <ele>283.44</ele>
        <time>2015-09-18T13:13:13Z</time>
      </trkpt>
      <trkpt lat="43.58273" lon="3.62516">
        <ele>282.94</ele>
        <time>2015-09-18T13:13:30Z</time>
      </trkpt>
      <trkpt lat="43.58256" lon="3.62505">
        <ele>281.29</ele>
        <time>2015-09-18T13:13:48Z</time>
      </trkpt>
      <trkpt lat="43.58241" lon="3.62499">
        <ele>279.88</ele>
        <time>2015-09-18T13:14:02Z</time>
      </trkpt>
      <trkpt lat="43.58237" lon="3.62495">
        <ele>280.81</ele>
        <time>2015-09-18T13:14:06Z</time>
      </trkpt>
      <trkpt lat="43.58223" lon="3.6248">
        <ele>278.91</ele>
        <time>2015-09-18T13:14:22Z</time>
      </trkpt>
      <trkpt lat="43.5821" lon="3.62459">
        <ele>278.3</ele>
        <time>2015-09-18T13:14:41Z</time>
      </trkpt>
      <trkpt lat="43.58202" lon="3.62448">
        <ele>278.1</ele>
        <time>2015-09-18T13:14:53Z</time>
      </trkpt>
      <trkpt lat="43.58189" lon="3.62425">
        <ele>278.07</ele>
        <time>2015-09-18T13:15:12Z</time>
      </trkpt>
      <trkpt lat="43.58179" lon="3.62403">
        <ele>277.37</ele>
        <time>2015-09-18T13:15:29Z</time>
      </trkpt>
      <trkpt lat="43.58178" lon="3.62399">
        <ele>277.8</ele>
        <time>2015-09-18T13:15:32Z</time>
      </trkpt>
      <trkpt lat="43.58177" lon="3.62384">
        <ele>277.24</ele>
        <time>2015-09-18T13:15:41Z</time>
      </trkpt>
      <trkpt lat="43.58177" lon="3.6238">
        <ele>277.03</ele>
        <time>2015-09-18T13:15:44Z</time>
      </trkpt>
      <trkpt lat="43.58178" lon="3.62364">
        <ele>277.1</ele>
        <time>2015-09-18T13:15:55Z</time>
      </trkpt>
      <trkpt lat="43.58177" lon="3.6236">
        <ele>276.9</ele>
        <time>2015-09-18T13:15:58Z</time>
      </trkpt>
      <trkpt lat="43.58178" lon="3.62353">
        <ele>277.15</ele>
        <time>2015-09-18T13:16:04Z</time>
      </trkpt>
      <trkpt lat="43.58177" lon="3.62343">
        <ele>276.79</ele>
        <time>2015-09-18T13:16:11Z</time>
      </trkpt>
      <trkpt lat="43.58173" lon="3.62323">
        <ele>276.86</ele>
        <time>2015-09-18T13:16:25Z</time>
      </trkpt>
      <trkpt lat="43.58173" lon="3.62322">
        <ele>276.79</ele>
        <time>2015-09-18T13:16:26Z</time>
      </trkpt>
      <trkpt lat="43.58175" lon="3.623">
        <ele>277.02</ele>
        <time>2015-09-18T13:16:41Z</time>
      </trkpt>
      <trkpt lat="43.58175" lon="3.62289">
        <ele>276.82</ele>
        <time>2015-09-18T13:16:48Z</time>
      </trkpt>
      <trkpt lat="43.58171" lon="3.62269">
        <ele>277.09</ele>
        <time>2015-09-18T13:17:03Z</time>
      </trkpt>
      <trkpt lat="43.58171" lon="3.62249">
        <ele>277.15</ele>
        <time>2015-09-18T13:17:17Z</time>
      </trkpt>
      <trkpt lat="43.58168" lon="3.62225">
        <ele>276.45</ele>
        <time>2015-09-18T13:17:35Z</time>
      </trkpt>
      <trkpt lat="43.58166" lon="3.62206">
        <ele>276.65</ele>
        <time>2015-09-18T13:17:48Z</time>
      </trkpt>
      <trkpt lat="43.58165" lon="3.62197">
        <ele>276.62</ele>
        <time>2015-09-18T13:17:55Z</time>
      </trkpt>
      <trkpt lat="43.58165" lon="3.62194">
        <ele>277.12</ele>
        <time>2015-09-18T13:17:57Z</time>
      </trkpt>
      <trkpt lat="43.58157" lon="3.6217">
        <ele>277.21</ele>
        <time>2015-09-18T13:18:15Z</time>
      </trkpt>
      <trkpt lat="43.58155" lon="3.62163">
        <ele>277.18</ele>
        <time>2015-09-18T13:18:20Z</time>
      </trkpt>
      <trkpt lat="43.58154" lon="3.62159">
        <ele>277.24</ele>
        <time>2015-09-18T13:18:24Z</time>
      </trkpt>
      <trkpt lat="43.58148" lon="3.62144">
        <ele>277.54</ele>
        <time>2015-09-18T13:18:35Z</time>
      </trkpt>
      <trkpt lat="43.58141" lon="3.62127">
        <ele>277.74</ele>
        <time>2015-09-18T13:18:49Z</time>
      </trkpt>
      <trkpt lat="43.58131" lon="3.62108">
        <ele>277.69</ele>
        <time>2015-09-18T13:19:04Z</time>
      </trkpt>
      <trkpt lat="43.58128" lon="3.62101">
        <ele>278.15</ele>
        <time>2015-09-18T13:19:11Z</time>
      </trkpt>
      <trkpt lat="43.58126" lon="3.62098">
        <ele>278.35</ele>
        <time>2015-09-18T13:19:14Z</time>
      </trkpt>
      <trkpt lat="43.58118" lon="3.62085">
        <ele>278.89</ele>
        <time>2015-09-18T13:19:27Z</time>
      </trkpt>
      <trkpt lat="43.58117" lon="3.62084">
        <ele>279.63</ele>
        <time>2015-09-18T13:19:28Z</time>
      </trkpt>
      <trkpt lat="43.58107" lon="3.6207">
        <ele>280.49</ele>
        <time>2015-09-18T13:19:43Z</time>
      </trkpt>
      <trkpt lat="43.58106" lon="3.62067">
        <ele>280.76</ele>
        <time>2015-09-18T13:19:46Z</time>
      </trkpt>
      <trkpt lat="43.58098" lon="3.62047">
        <ele>280.93</ele>
        <time>2015-09-18T13:20:01Z</time>
      </trkpt>
      <trkpt lat="43.58093" lon="3.62032">
        <ele>280.68</ele>
        <time>2015-09-18T13:20:13Z</time>
      </trkpt>
      <trkpt lat="43.58092" lon="3.62031">
        <ele>281.05</ele>
        <time>2015-09-18T13:20:14Z</time>
      </trkpt>
      <trkpt lat="43.58091" lon="3.62029">
        <ele>280.94</ele>
        <time>2015-09-18T13:20:16Z</time>
      </trkpt>
      <trkpt lat="43.58082" lon="3.6201">
        <ele>283.13</ele>
        <time>2015-09-18T13:20:33Z</time>
      </trkpt>
      <trkpt lat="43.58081" lon="3.62005">
        <ele>282.8</ele>
        <time>2015-09-18T13:20:36Z</time>
      </trkpt>
      <trkpt lat="43.58077" lon="3.61985">
        <ele>282.5</ele>
        <time>2015-09-18T13:20:51Z</time>
      </trkpt>
      <trkpt lat="43.58072" lon="3.61966">
        <ele>283.28</ele>
        <time>2015-09-18T13:21:07Z</time>
      </trkpt>
      <trkpt lat="43.58066" lon="3.61944">
        <ele>283.67</ele>
        <time>2015-09-18T13:21:24Z</time>
      </trkpt>
      <trkpt lat="43.58056" lon="3.61917">
        <ele>283.83</ele>
        <time>2015-09-18T13:21:43Z</time>
      </trkpt>
      <trkpt lat="43.58045" lon="3.61901">
        <ele>284.12</ele>
        <time>2015-09-18T13:21:58Z</time>
      </trkpt>
      <trkpt lat="43.58034" lon="3.61886">
        <ele>285.41</ele>
        <time>2015-09-18T13:22:13Z</time>
      </trkpt>
      <trkpt lat="43.58025" lon="3.61872">
        <ele>284.82</ele>
        <time>2015-09-18T13:22:27Z</time>
      </trkpt>
      <trkpt lat="43.58014" lon="3.61855">
        <ele>284.57</ele>
        <time>2015-09-18T13:22:44Z</time>
      </trkpt>
      <trkpt lat="43.58004" lon="3.61838">
        <ele>283.93</ele>
        <time>2015-09-18T13:22:59Z</time>
      </trkpt>
      <trkpt lat="43.57991" lon="3.6182">
        <ele>284.13</ele>
        <time>2015-09-18T13:23:16Z</time>
      </trkpt>
      <trkpt lat="43.57975" lon="3.6181">
        <ele>284.55</ele>
        <time>2015-09-18T13:23:32Z</time>
      </trkpt>
      <trkpt lat="43.5797" lon="3.61809">
        <ele>284.69</ele>
        <time>2015-09-18T13:23:37Z</time>
      </trkpt>
      <trkpt lat="43.57965" lon="3.61808">
        <ele>284.76</ele>
        <time>2015-09-18T13:23:42Z</time>
      </trkpt>
      <trkpt lat="43.57963" lon="3.61808">
        <ele>285.26</ele>
        <time>2015-09-18T13:23:44Z</time>
      </trkpt>
      <trkpt lat="43.5796" lon="3.61808">
        <ele>285.36</ele>
        <time>2015-09-18T13:23:47Z</time>
      </trkpt>
      <trkpt lat="43.57947" lon="3.61807">
        <ele>285.04</ele>
        <time>2015-09-18T13:24:00Z</time>
      </trkpt>
      <trkpt lat="43.57933" lon="3.61806">
        <ele>285.59</ele>
        <time>2015-09-18T13:24:14Z</time>
      </trkpt>
      <trkpt lat="43.57916" lon="3.618">
        <ele>285.2</ele>
        <time>2015-09-18T13:24:31Z</time>
      </trkpt>
      <trkpt lat="43.57906" lon="3.61795">
        <ele>285.34</ele>
        <time>2015-09-18T13:24:42Z</time>
      </trkpt>
      <trkpt lat="43.57893" lon="3.61789">
        <ele>285.44</ele>
        <time>2015-09-18T13:24:56Z</time>
      </trkpt>
      <trkpt lat="43.57884" lon="3.61785">
        <ele>284.97</ele>
        <time>2015-09-18T13:25:05Z</time>
      </trkpt>
      <trkpt lat="43.57861" lon="3.61763">
        <ele>284.47</ele>
        <time>2015-09-18T13:25:30Z</time>
      </trkpt>
      <trkpt lat="43.57852" lon="3.61743">
        <ele>283.37</ele>
        <time>2015-09-18T13:25:48Z</time>
      </trkpt>
      <trkpt lat="43.57842" lon="3.61721">
        <ele>282.87</ele>
        <time>2015-09-18T13:26:05Z</time>
      </trkpt>
      <trkpt lat="43.57838" lon="3.61712">
        <ele>282.12</ele>
        <time>2015-09-18T13:26:12Z</time>
      </trkpt>
      <trkpt lat="43.57842" lon="3.61688">
        <ele>281.3</ele>
        <time>2015-09-18T13:26:30Z</time>
      </trkpt>
      <trkpt lat="43.57844" lon="3.61665">
        <ele>281.14</ele>
        <time>2015-09-18T13:26:46Z</time>
      </trkpt>
      <trkpt lat="43.57849" lon="3.61637">
        <ele>281.14</ele>
        <time>2015-09-18T13:27:05Z</time>
      </trkpt>
      <trkpt lat="43.57839" lon="3.6162">
        <ele>281.17</ele>
        <time>2015-09-18T13:27:21Z</time>
      </trkpt>
      <trkpt lat="43.57833" lon="3.6161">
        <ele>281.29</ele>
        <time>2015-09-18T13:27:31Z</time>
      </trkpt>
      <trkpt lat="43.57829" lon="3.6159">
        <ele>281.89</ele>
        <time>2015-09-18T13:27:46Z</time>
      </trkpt>
      <trkpt lat="43.57827" lon="3.61579">
        <ele>282.21</ele>
        <time>2015-09-18T13:27:54Z</time>
      </trkpt>
      <trkpt lat="43.57826" lon="3.61575">
        <ele>281.52</ele>
        <time>2015-09-18T13:27:57Z</time>
      </trkpt>
      <trkpt lat="43.57825" lon="3.61569">
        <ele>282.02</ele>
        <time>2015-09-18T13:28:01Z</time>
      </trkpt>
      <trkpt lat="43.57821" lon="3.61545">
        <ele>283.03</ele>
        <time>2015-09-18T13:28:18Z</time>
      </trkpt>
      <trkpt lat="43.5782" lon="3.6154">
        <ele>282.84</ele>
        <time>2015-09-18T13:28:22Z</time>
      </trkpt>
      <trkpt lat="43.57819" lon="3.61537">
        <ele>282.79</ele>
        <time>2015-09-18T13:28:24Z</time>
      </trkpt>
      <trkpt lat="43.57817" lon="3.61524">
        <ele>282.77</ele>
        <time>2015-09-18T13:28:33Z</time>
      </trkpt>
      <trkpt lat="43.57816" lon="3.61516">
        <ele>283.1</ele>
        <time>2015-09-18T13:28:39Z</time>
      </trkpt>
      <trkpt lat="43.57812" lon="3.61499">
        <ele>283.08</ele>
        <time>2015-09-18T13:28:51Z</time>
      </trkpt>
      <trkpt lat="43.57811" lon="3.61492">
        <ele>283.28</ele>
        <time>2015-09-18T13:28:56Z</time>
      </trkpt>
      <trkpt lat="43.57809" lon="3.61472">
        <ele>282.44</ele>
        <time>2015-09-18T13:29:11Z</time>
      </trkpt>
      <trkpt lat="43.57804" lon="3.6145">
        <ele>282.09</ele>
        <time>2015-09-18T13:29:28Z</time>
      </trkpt>
      <trkpt lat="43.57798" lon="3.61427">
        <ele>281.33</ele>
        <time>2015-09-18T13:29:44Z</time>
      </trkpt>
      <trkpt lat="43.57796" lon="3.61403">
        <ele>280.88</ele>
        <time>2015-09-18T13:30:01Z</time>
      </trkpt>
      <trkpt lat="43.57795" lon="3.61397">
        <ele>281.05</ele>
        <time>2015-09-18T13:30:06Z</time>
      </trkpt>
      <trkpt lat="43.5779" lon="3.61375">
        <ele>280.78</ele>
        <time>2015-09-18T13:30:22Z</time>
      </trkpt>
      <trkpt lat="43.57788" lon="3.61356">
        <ele>280.02</ele>
        <time>2015-09-18T13:30:36Z</time>
      </trkpt>
      <trkpt lat="43.57789" lon="3.61342">
        <ele>279.53</ele>
        <time>2015-09-18T13:30:46Z</time>
      </trkpt>
      <trkpt lat="43.57789" lon="3.61337">
        <ele>279.59</ele>
        <time>2015-09-18T13:30:50Z</time>
      </trkpt>
      <trkpt lat="43.57789" lon="3.61324">
        <ele>279.57</ele>
        <time>2015-09-18T13:30:59Z</time>
      </trkpt>
      <trkpt lat="43.5779" lon="3.61315">
        <ele>278.68</ele>
        <time>2015-09-18T13:31:05Z</time>
      </trkpt>
      <trkpt lat="43.57791" lon="3.61312">
        <ele>279.01</ele>
        <time>2015-09-18T13:31:07Z</time>
      </trkpt>
      <trkpt lat="43.57789" lon="3.61293">
        <ele>278.41</ele>
        <time>2015-09-18T13:31:21Z</time>
      </trkpt>
      <trkpt lat="43.57789" lon="3.6129">
        <ele>278.42</ele>
        <time>2015-09-18T13:31:23Z</time>
      </trkpt>
      <trkpt lat="43.57788" lon="3.61279">
        <ele>277.83</ele>
        <time>2015-09-18T13:31:38Z</time>
      </trkpt>
      <trkpt lat="43.57788" lon="3.61276">
        <ele>278.35</ele>
        <time>2015-09-18T13:31:43Z</time>
      </trkpt>
      <trkpt lat="43.57788" lon="3.61266">
        <ele>277.72</ele>
        <time>2015-09-18T13:31:49Z</time>
      </trkpt>
      <trkpt lat="43.57789" lon="3.61238">
        <ele>278.08</ele>
        <time>2015-09-18T13:32:08Z</time>
      </trkpt>
      <trkpt lat="43.57789" lon="3.61221">
        <ele>277.55</ele>
        <time>2015-09-18T13:32:19Z</time>
      </trkpt>
      <trkpt lat="43.57791" lon="3.61198">
        <ele>277.44</ele>
        <time>2015-09-18T13:32:35Z</time>
      </trkpt>
      <trkpt lat="43.57792" lon="3.61192">
        <ele>277.34</ele>
        <time>2015-09-18T13:32:39Z</time>
      </trkpt>
      <trkpt lat="43.57793" lon="3.6119">
        <ele>277.55</ele>
        <time>2015-09-18T13:32:41Z</time>
      </trkpt>
      <trkpt lat="43.57794" lon="3.61181">
        <ele>277.64</ele>
        <time>2015-09-18T13:32:47Z</time>
      </trkpt>
      <trkpt lat="43.57796" lon="3.61173">
        <ele>277.43</ele>
        <time>2015-09-18T13:32:53Z</time>
      </trkpt>
      <trkpt lat="43.57798" lon="3.6116">
        <ele>277.11</ele>
        <time>2015-09-18T13:33:02Z</time>
      </trkpt>
      <trkpt lat="43.57799" lon="3.61158">
        <ele>277.24</ele>
        <time>2015-09-18T13:33:04Z</time>
      </trkpt>
      <trkpt lat="43.578" lon="3.61137">
        <ele>276.76</ele>
        <time>2015-09-18T13:33:18Z</time>
      </trkpt>
      <trkpt lat="43.57803" lon="3.61123">
        <ele>276.45</ele>
        <time>2015-09-18T13:33:29Z</time>
      </trkpt>
      <trkpt lat="43.57812" lon="3.6112">
        <ele>275.28</ele>
        <time>2015-09-18T13:33:38Z</time>
      </trkpt>
      <trkpt lat="43.57816" lon="3.61119">
        <ele>275.09</ele>
        <time>2015-09-18T13:33:42Z</time>
      </trkpt>
      <trkpt lat="43.57821" lon="3.61117">
        <ele>274.69</ele>
        <time>2015-09-18T13:33:48Z</time>
      </trkpt>
      <trkpt lat="43.57828" lon="3.61107">
        <ele>274</ele>
        <time>2015-09-18T13:34:00Z</time>
      </trkpt>
      <trkpt lat="43.57832" lon="3.61101">
        <ele>273.43</ele>
        <time>2015-09-18T13:34:06Z</time>
      </trkpt>
      <trkpt lat="43.57832" lon="3.61101">
        <ele>273.84</ele>
        <time>2015-09-18T13:34:19Z</time>
      </trkpt>
      <trkpt lat="43.57832" lon="3.61101">
        <ele>274.42</ele>
        <time>2015-09-18T13:34:24Z</time>
      </trkpt>
      <trkpt lat="43.57836" lon="3.61098">
        <ele>272.95</ele>
        <time>2015-09-18T13:34:28Z</time>
      </trkpt>
      <trkpt lat="43.57839" lon="3.61095">
        <ele>272.9</ele>
        <time>2015-09-18T13:34:32Z</time>
      </trkpt>
      <trkpt lat="43.57851" lon="3.61091">
        <ele>271.57</ele>
        <time>2015-09-18T13:34:48Z</time>
      </trkpt>
      <trkpt lat="43.57852" lon="3.61091">
        <ele>271.92</ele>
        <time>2015-09-18T13:34:49Z</time>
      </trkpt>
      <trkpt lat="43.57862" lon="3.61079">
        <ele>270.92</ele>
        <time>2015-09-18T13:35:06Z</time>
      </trkpt>
      <trkpt lat="43.57857" lon="3.61073">
        <ele>270.58</ele>
        <time>2015-09-18T13:35:13Z</time>
      </trkpt>
      <trkpt lat="43.57842" lon="3.61062">
        <ele>270.66</ele>
        <time>2015-09-18T13:35:32Z</time>
      </trkpt>
      <trkpt lat="43.57833" lon="3.61039">
        <ele>270.56</ele>
        <time>2015-09-18T13:35:49Z</time>
      </trkpt>
      <trkpt lat="43.57827" lon="3.61019">
        <ele>268.55</ele>
        <time>2015-09-18T13:36:04Z</time>
      </trkpt>
      <trkpt lat="43.57822" lon="3.60997">
        <ele>269.37</ele>
        <time>2015-09-18T13:36:19Z</time>
      </trkpt>
      <trkpt lat="43.57822" lon="3.60998">
        <ele>269.31</ele>
        <time>2015-09-18T13:36:30Z</time>
      </trkpt>
      <trkpt lat="43.57821" lon="3.60998">
        <ele>268.86</ele>
        <time>2015-09-18T13:36:55Z</time>
      </trkpt>
      <trkpt lat="43.57821" lon="3.60995">
        <ele>269.46</ele>
        <time>2015-09-18T13:37:09Z</time>
      </trkpt>
      <trkpt lat="43.57819" lon="3.60991">
        <ele>268.95</ele>
        <time>2015-09-18T13:37:13Z</time>
      </trkpt>
      <trkpt lat="43.57813" lon="3.60969">
        <ele>269.03</ele>
        <time>2015-09-18T13:37:30Z</time>
      </trkpt>
      <trkpt lat="43.57806" lon="3.60948">
        <ele>269.41</ele>
        <time>2015-09-18T13:37:45Z</time>
      </trkpt>
      <trkpt lat="43.578" lon="3.60931">
        <ele>268.74</ele>
        <time>2015-09-18T13:37:59Z</time>
      </trkpt>
      <trkpt lat="43.57795" lon="3.60913">
        <ele>268.93</ele>
        <time>2015-09-18T13:38:12Z</time>
      </trkpt>
      <trkpt lat="43.57791" lon="3.60905">
        <ele>268.68</ele>
        <time>2015-09-18T13:38:20Z</time>
      </trkpt>
      <trkpt lat="43.57788" lon="3.609">
        <ele>268.81</ele>
        <time>2015-09-18T13:38:24Z</time>
      </trkpt>
      <trkpt lat="43.57782" lon="3.60879">
        <ele>268.82</ele>
        <time>2015-09-18T13:38:40Z</time>
      </trkpt>
      <trkpt lat="43.57776" lon="3.6086">
        <ele>268.63</ele>
        <time>2015-09-18T13:38:53Z</time>
      </trkpt>
      <trkpt lat="43.57769" lon="3.60841">
        <ele>268.06</ele>
        <time>2015-09-18T13:39:07Z</time>
      </trkpt>
      <trkpt lat="43.57766" lon="3.60824">
        <ele>268.47</ele>
        <time>2015-09-18T13:39:18Z</time>
      </trkpt>
      <trkpt lat="43.57765" lon="3.60818">
        <ele>268.19</ele>
        <time>2015-09-18T13:39:22Z</time>
      </trkpt>
      <trkpt lat="43.57759" lon="3.60796">
        <ele>268.49</ele>
        <time>2015-09-18T13:39:37Z</time>
      </trkpt>
      <trkpt lat="43.57755" lon="3.60785">
        <ele>268.06</ele>
        <time>2015-09-18T13:39:45Z</time>
      </trkpt>
      <trkpt lat="43.57752" lon="3.60777">
        <ele>269.01</ele>
        <time>2015-09-18T13:39:52Z</time>
      </trkpt>
      <trkpt lat="43.5775" lon="3.60771">
        <ele>268.29</ele>
        <time>2015-09-18T13:39:56Z</time>
      </trkpt>
      <trkpt lat="43.57745" lon="3.60755">
        <ele>268.43</ele>
        <time>2015-09-18T13:40:09Z</time>
      </trkpt>
      <trkpt lat="43.57737" lon="3.60734">
        <ele>268.87</ele>
        <time>2015-09-18T13:40:24Z</time>
      </trkpt>
      <trkpt lat="43.57737" lon="3.60732">
        <ele>269.12</ele>
        <time>2015-09-18T13:40:25Z</time>
      </trkpt>
      <trkpt lat="43.57736" lon="3.6073">
        <ele>269.19</ele>
        <time>2015-09-18T13:40:27Z</time>
      </trkpt>
      <trkpt lat="43.57729" lon="3.60706">
        <ele>269.16</ele>
        <time>2015-09-18T13:40:43Z</time>
      </trkpt>
      <trkpt lat="43.57724" lon="3.6069">
        <ele>268.89</ele>
        <time>2015-09-18T13:40:54Z</time>
      </trkpt>
      <trkpt lat="43.57722" lon="3.60687">
        <ele>269.14</ele>
        <time>2015-09-18T13:40:56Z</time>
      </trkpt>
      <trkpt lat="43.57726" lon="3.60689">
        <ele>268.68</ele>
        <time>2015-09-18T13:41:09Z</time>
      </trkpt>
      <trkpt lat="43.57726" lon="3.60691">
        <ele>268.84</ele>
        <time>2015-09-18T13:41:11Z</time>
      </trkpt>
      <trkpt lat="43.57728" lon="3.60695">
        <ele>268.91</ele>
        <time>2015-09-18T13:41:14Z</time>
      </trkpt>
      <trkpt lat="43.5773" lon="3.60704">
        <ele>268.85</ele>
        <time>2015-09-18T13:41:21Z</time>
      </trkpt>
      <trkpt lat="43.57737" lon="3.60723">
        <ele>268.57</ele>
        <time>2015-09-18T13:41:35Z</time>
      </trkpt>
      <trkpt lat="43.57739" lon="3.6073">
        <ele>268.21</ele>
        <time>2015-09-18T13:41:40Z</time>
      </trkpt>
      <trkpt lat="43.57741" lon="3.60737">
        <ele>267.86</ele>
        <time>2015-09-18T13:41:45Z</time>
      </trkpt>
      <trkpt lat="43.57748" lon="3.60761">
        <ele>268.12</ele>
        <time>2015-09-18T13:42:02Z</time>
      </trkpt>
      <trkpt lat="43.57756" lon="3.60787">
        <ele>267.72</ele>
        <time>2015-09-18T13:42:20Z</time>
      </trkpt>
      <trkpt lat="43.57763" lon="3.6081">
        <ele>268.08</ele>
        <time>2015-09-18T13:42:37Z</time>
      </trkpt>
      <trkpt lat="43.57765" lon="3.60817">
        <ele>268.17</ele>
        <time>2015-09-18T13:42:42Z</time>
      </trkpt>
      <trkpt lat="43.57772" lon="3.60839">
        <ele>268.67</ele>
        <time>2015-09-18T13:42:58Z</time>
      </trkpt>
      <trkpt lat="43.57779" lon="3.60862">
        <ele>268.81</ele>
        <time>2015-09-18T13:43:15Z</time>
      </trkpt>
      <trkpt lat="43.57787" lon="3.60889">
        <ele>269.36</ele>
        <time>2015-09-18T13:43:34Z</time>
      </trkpt>
      <trkpt lat="43.57793" lon="3.60909">
        <ele>269.62</ele>
        <time>2015-09-18T13:43:50Z</time>
      </trkpt>
      <trkpt lat="43.57798" lon="3.60929">
        <ele>269.6</ele>
        <time>2015-09-18T13:44:06Z</time>
      </trkpt>
      <trkpt lat="43.57805" lon="3.60952">
        <ele>269.49</ele>
        <time>2015-09-18T13:44:24Z</time>
      </trkpt>
      <trkpt lat="43.57813" lon="3.60974">
        <ele>269.92</ele>
        <time>2015-09-18T13:44:42Z</time>
      </trkpt>
      <trkpt lat="43.57821" lon="3.60996">
        <ele>270.75</ele>
        <time>2015-09-18T13:45:00Z</time>
      </trkpt>
      <trkpt lat="43.57827" lon="3.61014">
        <ele>271.41</ele>
        <time>2015-09-18T13:45:14Z</time>
      </trkpt>
      <trkpt lat="43.57831" lon="3.61032">
        <ele>271.44</ele>
        <time>2015-09-18T13:45:27Z</time>
      </trkpt>
      <trkpt lat="43.57832" lon="3.61036">
        <ele>271.68</ele>
        <time>2015-09-18T13:45:30Z</time>
      </trkpt>
      <trkpt lat="43.57842" lon="3.6106">
        <ele>271.49</ele>
        <time>2015-09-18T13:45:51Z</time>
      </trkpt>
      <trkpt lat="43.57855" lon="3.61073">
        <ele>272.03</ele>
        <time>2015-09-18T13:46:07Z</time>
      </trkpt>
      <trkpt lat="43.57865" lon="3.61083">
        <ele>272.39</ele>
        <time>2015-09-18T13:46:21Z</time>
      </trkpt>
      <trkpt lat="43.57868" lon="3.61102">
        <ele>272.71</ele>
        <time>2015-09-18T13:46:37Z</time>
      </trkpt>
      <trkpt lat="43.57885" lon="3.61109">
        <ele>272.56</ele>
        <time>2015-09-18T13:46:55Z</time>
      </trkpt>
      <trkpt lat="43.57901" lon="3.6111">
        <ele>272.36</ele>
        <time>2015-09-18T13:47:13Z</time>
      </trkpt>
      <trkpt lat="43.57922" lon="3.61107">
        <ele>273.7</ele>
        <time>2015-09-18T13:47:34Z</time>
      </trkpt>
      <trkpt lat="43.57938" lon="3.61106">
        <ele>273.63</ele>
        <time>2015-09-18T13:47:51Z</time>
      </trkpt>
      <trkpt lat="43.57957" lon="3.6111">
        <ele>274.43</ele>
        <time>2015-09-18T13:48:11Z</time>
      </trkpt>
      <trkpt lat="43.57975" lon="3.6112">
        <ele>274.84</ele>
        <time>2015-09-18T13:48:31Z</time>
      </trkpt>
      <trkpt lat="43.57992" lon="3.61124">
        <ele>276.09</ele>
        <time>2015-09-18T13:48:51Z</time>
      </trkpt>
      <trkpt lat="43.58006" lon="3.61126">
        <ele>277.18</ele>
        <time>2015-09-18T13:49:08Z</time>
      </trkpt>
      <trkpt lat="43.58018" lon="3.61127">
        <ele>277.97</ele>
        <time>2015-09-18T13:49:22Z</time>
      </trkpt>
      <trkpt lat="43.58038" lon="3.61128">
        <ele>279.23</ele>
        <time>2015-09-18T13:49:43Z</time>
      </trkpt>
      <trkpt lat="43.58053" lon="3.61125">
        <ele>279.18</ele>
        <time>2015-09-18T13:50:01Z</time>
      </trkpt>
      <trkpt lat="43.58059" lon="3.61126">
        <ele>279.57</ele>
        <time>2015-09-18T13:50:12Z</time>
      </trkpt>
      <trkpt lat="43.58071" lon="3.61126">
        <ele>278.5</ele>
        <time>2015-09-18T13:50:27Z</time>
      </trkpt>
      <trkpt lat="43.58081" lon="3.61125">
        <ele>278.78</ele>
        <time>2015-09-18T13:50:41Z</time>
      </trkpt>
      <trkpt lat="43.58089" lon="3.61128">
        <ele>277.21</ele>
        <time>2015-09-18T13:50:56Z</time>
      </trkpt>
      <trkpt lat="43.58098" lon="3.61131">
        <ele>276.29</ele>
        <time>2015-09-18T13:51:10Z</time>
      </trkpt>
      <trkpt lat="43.58111" lon="3.6113">
        <ele>274.91</ele>
        <time>2015-09-18T13:51:30Z</time>
      </trkpt>
      <trkpt lat="43.58118" lon="3.61128">
        <ele>273.75</ele>
        <time>2015-09-18T13:51:44Z</time>
      </trkpt>
      <trkpt lat="43.58125" lon="3.61124">
        <ele>273.04</ele>
        <time>2015-09-18T13:52:00Z</time>
      </trkpt>
      <trkpt lat="43.58133" lon="3.61121">
        <ele>271.69</ele>
        <time>2015-09-18T13:52:15Z</time>
      </trkpt>
      <trkpt lat="43.58137" lon="3.61121">
        <ele>270.68</ele>
        <time>2015-09-18T13:52:30Z</time>
      </trkpt>
      <trkpt lat="43.58145" lon="3.61118">
        <ele>268.9</ele>
        <time>2015-09-18T13:52:46Z</time>
      </trkpt>
      <trkpt lat="43.58155" lon="3.61117">
        <ele>267.71</ele>
        <time>2015-09-18T13:53:03Z</time>
      </trkpt>
      <trkpt lat="43.58162" lon="3.61114">
        <ele>267.21</ele>
        <time>2015-09-18T13:53:18Z</time>
      </trkpt>
      <trkpt lat="43.58167" lon="3.61114">
        <ele>266.51</ele>
        <time>2015-09-18T13:53:33Z</time>
      </trkpt>
      <trkpt lat="43.58174" lon="3.61109">
        <ele>265.39</ele>
        <time>2015-09-18T13:53:49Z</time>
      </trkpt>
      <trkpt lat="43.58183" lon="3.61102">
        <ele>264.55</ele>
        <time>2015-09-18T13:54:05Z</time>
      </trkpt>
      <trkpt lat="43.58188" lon="3.61096">
        <ele>263.1</ele>
        <time>2015-09-18T13:54:19Z</time>
      </trkpt>
      <trkpt lat="43.58192" lon="3.61091">
        <ele>262.27</ele>
        <time>2015-09-18T13:54:34Z</time>
      </trkpt>
      <trkpt lat="43.58197" lon="3.61085">
        <ele>260.87</ele>
        <time>2015-09-18T13:54:49Z</time>
      </trkpt>
      <trkpt lat="43.582" lon="3.61079">
        <ele>259.98</ele>
        <time>2015-09-18T13:55:02Z</time>
      </trkpt>
      <trkpt lat="43.58205" lon="3.61074">
        <ele>258.79</ele>
        <time>2015-09-18T13:55:16Z</time>
      </trkpt>
      <trkpt lat="43.58213" lon="3.61066">
        <ele>256.53</ele>
        <time>2015-09-18T13:55:32Z</time>
      </trkpt>
      <trkpt lat="43.58221" lon="3.61062">
        <ele>255.67</ele>
        <time>2015-09-18T13:55:46Z</time>
      </trkpt>
      <trkpt lat="43.5823" lon="3.61058">
        <ele>254.35</ele>
        <time>2015-09-18T13:56:02Z</time>
      </trkpt>
      <trkpt lat="43.58235" lon="3.61055">
        <ele>252.32</ele>
        <time>2015-09-18T13:56:11Z</time>
      </trkpt>
      <trkpt lat="43.58244" lon="3.61044">
        <ele>252.07</ele>
        <time>2015-09-18T13:56:28Z</time>
      </trkpt>
      <trkpt lat="43.5825" lon="3.61039">
        <ele>251.25</ele>
        <time>2015-09-18T13:56:45Z</time>
      </trkpt>
      <trkpt lat="43.58259" lon="3.61032">
        <ele>250.81</ele>
        <time>2015-09-18T13:57:01Z</time>
      </trkpt>
      <trkpt lat="43.58271" lon="3.61022">
        <ele>249.87</ele>
        <time>2015-09-18T13:57:21Z</time>
      </trkpt>
      <trkpt lat="43.58278" lon="3.61015">
        <ele>249.63</ele>
        <time>2015-09-18T13:57:34Z</time>
      </trkpt>
      <trkpt lat="43.58292" lon="3.61013">
        <ele>248.54</ele>
        <time>2015-09-18T13:57:53Z</time>
      </trkpt>
      <trkpt lat="43.58298" lon="3.61011">
        <ele>247.35</ele>
        <time>2015-09-18T13:58:08Z</time>
      </trkpt>
      <trkpt lat="43.58309" lon="3.6101">
        <ele>245.27</ele>
        <time>2015-09-18T13:58:22Z</time>
      </trkpt>
      <trkpt lat="43.58312" lon="3.61011">
        <ele>245.29</ele>
        <time>2015-09-18T13:58:36Z</time>
      </trkpt>
      <trkpt lat="43.58325" lon="3.61009">
        <ele>244.09</ele>
        <time>2015-09-18T13:58:52Z</time>
      </trkpt>
      <trkpt lat="43.58329" lon="3.61008">
        <ele>243.43</ele>
        <time>2015-09-18T13:59:04Z</time>
      </trkpt>
      <trkpt lat="43.58336" lon="3.61008">
        <ele>242</ele>
        <time>2015-09-18T13:59:17Z</time>
      </trkpt>
      <trkpt lat="43.58344" lon="3.61007">
        <ele>241.69</ele>
        <time>2015-09-18T13:59:29Z</time>
      </trkpt>
      <trkpt lat="43.5835" lon="3.61006">
        <ele>241.57</ele>
        <time>2015-09-18T13:59:46Z</time>
      </trkpt>
      <trkpt lat="43.58356" lon="3.61003">
        <ele>241.16</ele>
        <time>2015-09-18T13:59:58Z</time>
      </trkpt>
      <trkpt lat="43.58358" lon="3.61001">
        <ele>240.1</ele>
        <time>2015-09-18T14:00:02Z</time>
      </trkpt>
      <trkpt lat="43.58371" lon="3.60996">
        <ele>239.42</ele>
        <time>2015-09-18T14:00:19Z</time>
      </trkpt>
      <trkpt lat="43.58372" lon="3.60995">
        <ele>239.17</ele>
        <time>2015-09-18T14:00:21Z</time>
      </trkpt>
      <trkpt lat="43.58374" lon="3.60994">
        <ele>239.24</ele>
        <time>2015-09-18T14:00:23Z</time>
      </trkpt>
      <trkpt lat="43.58383" lon="3.60986">
        <ele>239.16</ele>
        <time>2015-09-18T14:00:40Z</time>
      </trkpt>
      <trkpt lat="43.58393" lon="3.60982">
        <ele>237.68</ele>
        <time>2015-09-18T14:00:54Z</time>
      </trkpt>
      <trkpt lat="43.58402" lon="3.6098">
        <ele>237.06</ele>
        <time>2015-09-18T14:01:06Z</time>
      </trkpt>
      <trkpt lat="43.58416" lon="3.60979">
        <ele>236.24</ele>
        <time>2015-09-18T14:01:25Z</time>
      </trkpt>
      <trkpt lat="43.58424" lon="3.60981">
        <ele>235.92</ele>
        <time>2015-09-18T14:01:40Z</time>
      </trkpt>
      <trkpt lat="43.58436" lon="3.60982">
        <ele>233.97</ele>
        <time>2015-09-18T14:01:56Z</time>
      </trkpt>
      <trkpt lat="43.58446" lon="3.60988">
        <ele>233.87</ele>
        <time>2015-09-18T14:02:12Z</time>
      </trkpt>
      <trkpt lat="43.58459" lon="3.60994">
        <ele>233.41</ele>
        <time>2015-09-18T14:02:30Z</time>
      </trkpt>
      <trkpt lat="43.58467" lon="3.60996">
        <ele>231.76</ele>
        <time>2015-09-18T14:02:40Z</time>
      </trkpt>
      <trkpt lat="43.5848" lon="3.60998">
        <ele>231.25</ele>
        <time>2015-09-18T14:02:58Z</time>
      </trkpt>
      <trkpt lat="43.58488" lon="3.61">
        <ele>231.37</ele>
        <time>2015-09-18T14:03:14Z</time>
      </trkpt>
      <trkpt lat="43.58499" lon="3.61004">
        <ele>230.45</ele>
        <time>2015-09-18T14:03:30Z</time>
      </trkpt>
      <trkpt lat="43.58513" lon="3.61014">
        <ele>229.68</ele>
        <time>2015-09-18T14:03:51Z</time>
      </trkpt>
      <trkpt lat="43.58525" lon="3.61018">
        <ele>229.49</ele>
        <time>2015-09-18T14:04:07Z</time>
      </trkpt>
      <trkpt lat="43.58537" lon="3.61021">
        <ele>228.95</ele>
        <time>2015-09-18T14:04:24Z</time>
      </trkpt>
      <trkpt lat="43.58537" lon="3.61019">
        <ele>228.24</ele>
        <time>2015-09-18T14:04:42Z</time>
      </trkpt>
      <trkpt lat="43.58538" lon="3.61018">
        <ele>228.06</ele>
        <time>2015-09-18T14:05:20Z</time>
      </trkpt>
      <trkpt lat="43.58538" lon="3.61017">
        <ele>228.62</ele>
        <time>2015-09-18T14:06:06Z</time>
      </trkpt>
      <trkpt lat="43.58539" lon="3.61015">
        <ele>228.37</ele>
        <time>2015-09-18T14:06:36Z</time>
      </trkpt>
      <trkpt lat="43.58539" lon="3.61015">
        <ele>228.03</ele>
        <time>2015-09-18T14:07:08Z</time>
      </trkpt>
      <trkpt lat="43.58537" lon="3.61016">
        <ele>227.93</ele>
        <time>2015-09-18T14:07:46Z</time>
      </trkpt>
      <trkpt lat="43.58536" lon="3.61016">
        <ele>228.08</ele>
        <time>2015-09-18T14:08:28Z</time>
      </trkpt>
      <trkpt lat="43.58536" lon="3.61015">
        <ele>227.92</ele>
        <time>2015-09-18T14:09:07Z</time>
      </trkpt>
      <trkpt lat="43.58536" lon="3.61014">
        <ele>227.31</ele>
        <time>2015-09-18T14:09:45Z</time>
      </trkpt>
      <trkpt lat="43.58535" lon="3.61015">
        <ele>227.48</ele>
        <time>2015-09-18T14:10:26Z</time>
      </trkpt>
      <trkpt lat="43.58534" lon="3.61015">
        <ele>227.87</ele>
        <time>2015-09-18T14:11:08Z</time>
      </trkpt>
      <trkpt lat="43.58535" lon="3.61015">
        <ele>227.23</ele>
        <time>2015-09-18T14:11:54Z</time>
      </trkpt>
      <trkpt lat="43.58535" lon="3.61015">
        <ele>228</ele>
        <time>2015-09-18T14:12:45Z</time>
      </trkpt>
      <trkpt lat="43.58535" lon="3.61015">
        <ele>228.05</ele>
        <time>2015-09-18T14:13:32Z</time>
      </trkpt>
      <trkpt lat="43.58535" lon="3.61016">
        <ele>227.66</ele>
        <time>2015-09-18T14:14:08Z</time>
      </trkpt>
      <trkpt lat="43.58536" lon="3.61016">
        <ele>227.55</ele>
        <time>2015-09-18T14:14:52Z</time>
      </trkpt>
      <trkpt lat="43.58536" lon="3.61016">
        <ele>228.05</ele>
        <time>2015-09-18T14:15:38Z</time>
      </trkpt>
      <trkpt lat="43.58535" lon="3.61016">
        <ele>227.68</ele>
        <time>2015-09-18T14:16:19Z</time>
      </trkpt>
      <trkpt lat="43.58535" lon="3.61016">
        <ele>226.66</ele>
        <time>2015-09-18T14:17:02Z</time>
      </trkpt>
      <trkpt lat="43.58535" lon="3.61016">
        <ele>226.95</ele>
        <time>2015-09-18T14:17:46Z</time>
      </trkpt>
      <trkpt lat="43.58535" lon="3.61016">
        <ele>227.33</ele>
        <time>2015-09-18T14:18:29Z</time>
      </trkpt>
      <trkpt lat="43.58534" lon="3.61015">
        <ele>226.9</ele>
        <time>2015-09-18T14:19:15Z</time>
      </trkpt>
      <trkpt lat="43.58534" lon="3.61015">
        <ele>227.43</ele>
        <time>2015-09-18T14:19:58Z</time>
      </trkpt>
      <trkpt lat="43.58534" lon="3.61015">
        <ele>226.71</ele>
        <time>2015-09-18T14:20:46Z</time>
      </trkpt>
      <trkpt lat="43.58535" lon="3.61015">
        <ele>226.49</ele>
        <time>2015-09-18T14:21:31Z</time>
      </trkpt>
      <trkpt lat="43.58534" lon="3.61014">
        <ele>227.27</ele>
        <time>2015-09-18T14:22:16Z</time>
      </trkpt>
      <trkpt lat="43.58534" lon="3.61015">
        <ele>226.45</ele>
        <time>2015-09-18T14:23:06Z</time>
      </trkpt>
      <trkpt lat="43.58534" lon="3.61014">
        <ele>226.98</ele>
        <time>2015-09-18T14:24:02Z</time>
      </trkpt>
      <trkpt lat="43.58534" lon="3.61015">
        <ele>226.81</ele>
        <time>2015-09-18T14:24:52Z</time>
      </trkpt>
      <trkpt lat="43.58535" lon="3.61017">
        <ele>226.71</ele>
        <time>2015-09-18T14:25:30Z</time>
      </trkpt>
      <trkpt lat="43.58535" lon="3.61017">
        <ele>226.95</ele>
        <time>2015-09-18T14:26:21Z</time>
      </trkpt>
      <trkpt lat="43.58535" lon="3.61016">
        <ele>226.99</ele>
        <time>2015-09-18T14:27:26Z</time>
      </trkpt>
      <trkpt lat="43.58535" lon="3.61016">
        <ele>226.71</ele>
        <time>2015-09-18T14:28:21Z</time>
      </trkpt>
      <trkpt lat="43.58534" lon="3.61017">
        <ele>226.42</ele>
        <time>2015-09-18T14:29:16Z</time>
      </trkpt>
      <trkpt lat="43.58534" lon="3.61017">
        <ele>226.32</ele>
        <time>2015-09-18T14:29:54Z</time>
      </trkpt>
      <trkpt lat="43.58537" lon="3.61023">
        <ele>226.61</ele>
        <time>2015-09-18T14:30:08Z</time>
      </trkpt>
      <trkpt lat="43.58543" lon="3.61026">
        <ele>226.94</ele>
        <time>2015-09-18T14:30:22Z</time>
      </trkpt>
      <trkpt lat="43.5855" lon="3.6103">
        <ele>226.77</ele>
        <time>2015-09-18T14:30:35Z</time>
      </trkpt>
      <trkpt lat="43.58559" lon="3.61033">
        <ele>227.4</ele>
        <time>2015-09-18T14:30:50Z</time>
      </trkpt>
      <trkpt lat="43.58571" lon="3.61031">
        <ele>227.13</ele>
        <time>2015-09-18T14:31:08Z</time>
      </trkpt>
      <trkpt lat="43.5858" lon="3.61031">
        <ele>227.14</ele>
        <time>2015-09-18T14:31:22Z</time>
      </trkpt>
      <trkpt lat="43.58585" lon="3.61033">
        <ele>227.06</ele>
        <time>2015-09-18T14:31:37Z</time>
      </trkpt>
      <trkpt lat="43.58597" lon="3.61039">
        <ele>227.67</ele>
        <time>2015-09-18T14:31:53Z</time>
      </trkpt>
      <trkpt lat="43.58612" lon="3.61046">
        <ele>227.74</ele>
        <time>2015-09-18T14:32:11Z</time>
      </trkpt>
      <trkpt lat="43.58621" lon="3.61053">
        <ele>228.4</ele>
        <time>2015-09-18T14:32:26Z</time>
      </trkpt>
      <trkpt lat="43.58629" lon="3.61056">
        <ele>228.98</ele>
        <time>2015-09-18T14:32:43Z</time>
      </trkpt>
      <trkpt lat="43.58631" lon="3.61058">
        <ele>229.17</ele>
        <time>2015-09-18T14:32:46Z</time>
      </trkpt>
      <trkpt lat="43.58643" lon="3.61064">
        <ele>228.78</ele>
        <time>2015-09-18T14:33:04Z</time>
      </trkpt>
      <trkpt lat="43.58651" lon="3.6107">
        <ele>229.4</ele>
        <time>2015-09-18T14:33:14Z</time>
      </trkpt>
      <trkpt lat="43.58669" lon="3.6108">
        <ele>229.47</ele>
        <time>2015-09-18T14:33:34Z</time>
      </trkpt>
      <trkpt lat="43.58683" lon="3.61091">
        <ele>230.33</ele>
        <time>2015-09-18T14:33:51Z</time>
      </trkpt>
      <trkpt lat="43.58699" lon="3.61102">
        <ele>230.27</ele>
        <time>2015-09-18T14:34:10Z</time>
      </trkpt>
      <trkpt lat="43.58714" lon="3.61109">
        <ele>229.09</ele>
        <time>2015-09-18T14:34:26Z</time>
      </trkpt>
      <trkpt lat="43.5873" lon="3.61116">
        <ele>230.84</ele>
        <time>2015-09-18T14:34:45Z</time>
      </trkpt>
      <trkpt lat="43.58741" lon="3.61123">
        <ele>230.08</ele>
        <time>2015-09-18T14:35:03Z</time>
      </trkpt>
      <trkpt lat="43.58742" lon="3.61118">
        <ele>231.34</ele>
        <time>2015-09-18T14:35:11Z</time>
      </trkpt>
      <trkpt lat="43.58746" lon="3.61102">
        <ele>232.95</ele>
        <time>2015-09-18T14:35:26Z</time>
      </trkpt>
      <trkpt lat="43.58754" lon="3.6109">
        <ele>234.92</ele>
        <time>2015-09-18T14:35:43Z</time>
      </trkpt>
      <trkpt lat="43.58761" lon="3.61089">
        <ele>235.7</ele>
        <time>2015-09-18T14:35:58Z</time>
      </trkpt>
      <trkpt lat="43.58772" lon="3.61083">
        <ele>236.36</ele>
        <time>2015-09-18T14:36:13Z</time>
      </trkpt>
      <trkpt lat="43.5878" lon="3.61083">
        <ele>236.69</ele>
        <time>2015-09-18T14:36:27Z</time>
      </trkpt>
      <trkpt lat="43.58782" lon="3.6108">
        <ele>236.99</ele>
        <time>2015-09-18T14:36:39Z</time>
      </trkpt>
      <trkpt lat="43.58785" lon="3.61079">
        <ele>237.24</ele>
        <time>2015-09-18T14:37:08Z</time>
      </trkpt>
      <trkpt lat="43.58795" lon="3.61077">
        <ele>238.21</ele>
        <time>2015-09-18T14:37:22Z</time>
      </trkpt>
      <trkpt lat="43.588" lon="3.61067">
        <ele>239.33</ele>
        <time>2015-09-18T14:37:39Z</time>
      </trkpt>
      <trkpt lat="43.58801" lon="3.61059">
        <ele>240.42</ele>
        <time>2015-09-18T14:37:52Z</time>
      </trkpt>
      <trkpt lat="43.58794" lon="3.61055">
        <ele>240.28</ele>
        <time>2015-09-18T14:38:05Z</time>
      </trkpt>
      <trkpt lat="43.58796" lon="3.61056">
        <ele>239.71</ele>
        <time>2015-09-18T14:38:17Z</time>
      </trkpt>
      <trkpt lat="43.58801" lon="3.61063">
        <ele>239.93</ele>
        <time>2015-09-18T14:38:30Z</time>
      </trkpt>
      <trkpt lat="43.58797" lon="3.61071">
        <ele>238.34</ele>
        <time>2015-09-18T14:38:46Z</time>
      </trkpt>
      <trkpt lat="43.58791" lon="3.61075">
        <ele>237.16</ele>
        <time>2015-09-18T14:38:59Z</time>
      </trkpt>
      <trkpt lat="43.58779" lon="3.61081">
        <ele>235.99</ele>
        <time>2015-09-18T14:39:16Z</time>
      </trkpt>
      <trkpt lat="43.58768" lon="3.61083">
        <ele>235.17</ele>
        <time>2015-09-18T14:39:30Z</time>
      </trkpt>
      <trkpt lat="43.58761" lon="3.61085">
        <ele>234.28</ele>
        <time>2015-09-18T14:39:44Z</time>
      </trkpt>
      <trkpt lat="43.58751" lon="3.6109">
        <ele>234.34</ele>
        <time>2015-09-18T14:39:58Z</time>
      </trkpt>
      <trkpt lat="43.58749" lon="3.61092">
        <ele>233.07</ele>
        <time>2015-09-18T14:40:02Z</time>
      </trkpt>
      <trkpt lat="43.58743" lon="3.61107">
        <ele>231.02</ele>
        <time>2015-09-18T14:40:19Z</time>
      </trkpt>
      <trkpt lat="43.58733" lon="3.61116">
        <ele>230.25</ele>
        <time>2015-09-18T14:40:35Z</time>
      </trkpt>
      <trkpt lat="43.5872" lon="3.61112">
        <ele>229.74</ele>
        <time>2015-09-18T14:40:53Z</time>
      </trkpt>
      <trkpt lat="43.58716" lon="3.6111">
        <ele>229.89</ele>
        <time>2015-09-18T14:41:10Z</time>
      </trkpt>
      <trkpt lat="43.58712" lon="3.61109">
        <ele>229.54</ele>
        <time>2015-09-18T14:41:22Z</time>
      </trkpt>
      <trkpt lat="43.58709" lon="3.61107">
        <ele>229.19</ele>
        <time>2015-09-18T14:41:25Z</time>
      </trkpt>
      <trkpt lat="43.58694" lon="3.61098">
        <ele>229.17</ele>
        <time>2015-09-18T14:41:41Z</time>
      </trkpt>
      <trkpt lat="43.58681" lon="3.61089">
        <ele>229.14</ele>
        <time>2015-09-18T14:41:56Z</time>
      </trkpt>
      <trkpt lat="43.58672" lon="3.61083">
        <ele>228.8</ele>
        <time>2015-09-18T14:42:06Z</time>
      </trkpt>
      <trkpt lat="43.58666" lon="3.61077">
        <ele>228.91</ele>
        <time>2015-09-18T14:42:13Z</time>
      </trkpt>
      <trkpt lat="43.58649" lon="3.61068">
        <ele>228.31</ele>
        <time>2015-09-18T14:42:31Z</time>
      </trkpt>
      <trkpt lat="43.58638" lon="3.61059">
        <ele>227.96</ele>
        <time>2015-09-18T14:42:44Z</time>
      </trkpt>
      <trkpt lat="43.58633" lon="3.61056">
        <ele>228.16</ele>
        <time>2015-09-18T14:42:48Z</time>
      </trkpt>
      <trkpt lat="43.58619" lon="3.61052">
        <ele>228.11</ele>
        <time>2015-09-18T14:43:03Z</time>
      </trkpt>
      <trkpt lat="43.58608" lon="3.61043">
        <ele>227.29</ele>
        <time>2015-09-18T14:43:17Z</time>
      </trkpt>
      <trkpt lat="43.58608" lon="3.61036">
        <ele>228.03</ele>
        <time>2015-09-18T14:43:29Z</time>
      </trkpt>
      <trkpt lat="43.58603" lon="3.61029">
        <ele>228.41</ele>
        <time>2015-09-18T14:43:41Z</time>
      </trkpt>
      <trkpt lat="43.58602" lon="3.61028">
        <ele>228.34</ele>
        <time>2015-09-18T14:44:00Z</time>
      </trkpt>
      <trkpt lat="43.58602" lon="3.61029">
        <ele>228.43</ele>
        <time>2015-09-18T14:44:02Z</time>
      </trkpt>
      <trkpt lat="43.58591" lon="3.61027">
        <ele>227.58</ele>
        <time>2015-09-18T14:44:14Z</time>
      </trkpt>
      <trkpt lat="43.58578" lon="3.61029">
        <ele>227.01</ele>
        <time>2015-09-18T14:44:27Z</time>
      </trkpt>
      <trkpt lat="43.58561" lon="3.6103">
        <ele>226.72</ele>
        <time>2015-09-18T14:44:45Z</time>
      </trkpt>
      <trkpt lat="43.58555" lon="3.61031">
        <ele>226.82</ele>
        <time>2015-09-18T14:44:50Z</time>
      </trkpt>
      <trkpt lat="43.5855" lon="3.61028">
        <ele>226.74</ele>
        <time>2015-09-18T14:44:55Z</time>
      </trkpt>
      <trkpt lat="43.58539" lon="3.61022">
        <ele>225.86</ele>
        <time>2015-09-18T14:45:06Z</time>
      </trkpt>
      <trkpt lat="43.58525" lon="3.61013">
        <ele>225.36</ele>
        <time>2015-09-18T14:45:22Z</time>
      </trkpt>
      <trkpt lat="43.58518" lon="3.61006">
        <ele>224.46</ele>
        <time>2015-09-18T14:45:35Z</time>
      </trkpt>
      <trkpt lat="43.58518" lon="3.61004">
        <ele>224.66</ele>
        <time>2015-09-18T14:45:37Z</time>
      </trkpt>
      <trkpt lat="43.58518" lon="3.61001">
        <ele>224.63</ele>
        <time>2015-09-18T14:45:51Z</time>
      </trkpt>
      <trkpt lat="43.58518" lon="3.60996">
        <ele>224.55</ele>
        <time>2015-09-18T14:46:09Z</time>
      </trkpt>
      <trkpt lat="43.58519" lon="3.60986">
        <ele>224.81</ele>
        <time>2015-09-18T14:46:30Z</time>
      </trkpt>
      <trkpt lat="43.58521" lon="3.60983">
        <ele>224.45</ele>
        <time>2015-09-18T14:47:01Z</time>
      </trkpt>
      <trkpt lat="43.58521" lon="3.60984">
        <ele>224.76</ele>
        <time>2015-09-18T14:47:20Z</time>
      </trkpt>
      <trkpt lat="43.58519" lon="3.60995">
        <ele>224.36</ele>
        <time>2015-09-18T14:47:53Z</time>
      </trkpt>
      <trkpt lat="43.58518" lon="3.61005">
        <ele>224.28</ele>
        <time>2015-09-18T14:48:03Z</time>
      </trkpt>
      <trkpt lat="43.58519" lon="3.61016">
        <ele>225.66</ele>
        <time>2015-09-18T14:48:16Z</time>
      </trkpt>
      <trkpt lat="43.58528" lon="3.61018">
        <ele>225.87</ele>
        <time>2015-09-18T14:48:34Z</time>
      </trkpt>
      <trkpt lat="43.58537" lon="3.61018">
        <ele>226.29</ele>
        <time>2015-09-18T14:48:47Z</time>
      </trkpt>
      <trkpt lat="43.58542" lon="3.61008">
        <ele>227.87</ele>
        <time>2015-09-18T14:49:00Z</time>
      </trkpt>
      <trkpt lat="43.58537" lon="3.60995">
        <ele>227.75</ele>
        <time>2015-09-18T14:49:16Z</time>
      </trkpt>
      <trkpt lat="43.58538" lon="3.60986">
        <ele>227.17</ele>
        <time>2015-09-18T14:49:29Z</time>
      </trkpt>
      <trkpt lat="43.58539" lon="3.60987">
        <ele>228.01</ele>
        <time>2015-09-18T14:49:45Z</time>
      </trkpt>
      <trkpt lat="43.58541" lon="3.60983">
        <ele>228.46</ele>
        <time>2015-09-18T14:50:10Z</time>
      </trkpt>
      <trkpt lat="43.5855" lon="3.60981">
        <ele>229.05</ele>
        <time>2015-09-18T14:50:25Z</time>
      </trkpt>
      <trkpt lat="43.58558" lon="3.60975">
        <ele>231.2</ele>
        <time>2015-09-18T14:50:43Z</time>
      </trkpt>
      <trkpt lat="43.58564" lon="3.60976">
        <ele>232.3</ele>
        <time>2015-09-18T14:50:55Z</time>
      </trkpt>
      <trkpt lat="43.58571" lon="3.6097">
        <ele>232.98</ele>
        <time>2015-09-18T14:51:13Z</time>
      </trkpt>
      <trkpt lat="43.58577" lon="3.60967">
        <ele>234.48</ele>
        <time>2015-09-18T14:51:29Z</time>
      </trkpt>
      <trkpt lat="43.58581" lon="3.60967">
        <ele>235.75</ele>
        <time>2015-09-18T14:51:45Z</time>
      </trkpt>
      <trkpt lat="43.58585" lon="3.60972">
        <ele>235.76</ele>
        <time>2015-09-18T14:52:04Z</time>
      </trkpt>
      <trkpt lat="43.58591" lon="3.60974">
        <ele>236.41</ele>
        <time>2015-09-18T14:52:18Z</time>
      </trkpt>
      <trkpt lat="43.58594" lon="3.6098">
        <ele>236.73</ele>
        <time>2015-09-18T14:52:30Z</time>
      </trkpt>
      <trkpt lat="43.58597" lon="3.60982">
        <ele>236.77</ele>
        <time>2015-09-18T14:52:43Z</time>
      </trkpt>
      <trkpt lat="43.58595" lon="3.60987">
        <ele>235.89</ele>
        <time>2015-09-18T14:52:57Z</time>
      </trkpt>
      <trkpt lat="43.58602" lon="3.60982">
        <ele>236.63</ele>
        <time>2015-09-18T14:53:11Z</time>
      </trkpt>
      <trkpt lat="43.58607" lon="3.60981">
        <ele>238.15</ele>
        <time>2015-09-18T14:53:24Z</time>
      </trkpt>
      <trkpt lat="43.58616" lon="3.60979">
        <ele>238.93</ele>
        <time>2015-09-18T14:53:40Z</time>
      </trkpt>
      <trkpt lat="43.5863" lon="3.60981">
        <ele>240.54</ele>
        <time>2015-09-18T14:53:59Z</time>
      </trkpt>
      <trkpt lat="43.58641" lon="3.60978">
        <ele>241.58</ele>
        <time>2015-09-18T14:54:14Z</time>
      </trkpt>
      <trkpt lat="43.58648" lon="3.60977">
        <ele>242.01</ele>
        <time>2015-09-18T14:54:29Z</time>
      </trkpt>
      <trkpt lat="43.5865" lon="3.60977">
        <ele>241.62</ele>
        <time>2015-09-18T14:54:48Z</time>
      </trkpt>
      <trkpt lat="43.58649" lon="3.60976">
        <ele>241.53</ele>
        <time>2015-09-18T14:55:18Z</time>
      </trkpt>
      <trkpt lat="43.58656" lon="3.60976">
        <ele>241.87</ele>
        <time>2015-09-18T14:55:43Z</time>
      </trkpt>
      <trkpt lat="43.58663" lon="3.60977">
        <ele>240.75</ele>
        <time>2015-09-18T14:55:53Z</time>
      </trkpt>
      <trkpt lat="43.58675" lon="3.60979">
        <ele>239.85</ele>
        <time>2015-09-18T14:56:08Z</time>
      </trkpt>
      <trkpt lat="43.58688" lon="3.60974">
        <ele>237.94</ele>
        <time>2015-09-18T14:56:25Z</time>
      </trkpt>
      <trkpt lat="43.58699" lon="3.60969">
        <ele>238.17</ele>
        <time>2015-09-18T14:56:41Z</time>
      </trkpt>
      <trkpt lat="43.58714" lon="3.60964">
        <ele>238.22</ele>
        <time>2015-09-18T14:57:00Z</time>
      </trkpt>
      <trkpt lat="43.58727" lon="3.60968">
        <ele>239.02</ele>
        <time>2015-09-18T14:57:18Z</time>
      </trkpt>
      <trkpt lat="43.58739" lon="3.60964">
        <ele>240.26</ele>
        <time>2015-09-18T14:57:36Z</time>
      </trkpt>
      <trkpt lat="43.58749" lon="3.6096">
        <ele>241.06</ele>
        <time>2015-09-18T14:57:51Z</time>
      </trkpt>
      <trkpt lat="43.58761" lon="3.60962">
        <ele>242.88</ele>
        <time>2015-09-18T14:58:07Z</time>
      </trkpt>
      <trkpt lat="43.5877" lon="3.6097">
        <ele>242.89</ele>
        <time>2015-09-18T14:58:21Z</time>
      </trkpt>
      <trkpt lat="43.58781" lon="3.60976">
        <ele>244.58</ele>
        <time>2015-09-18T14:58:38Z</time>
      </trkpt>
      <trkpt lat="43.58788" lon="3.60976">
        <ele>245.69</ele>
        <time>2015-09-18T14:58:53Z</time>
      </trkpt>
      <trkpt lat="43.58797" lon="3.60968">
        <ele>247.23</ele>
        <time>2015-09-18T14:59:08Z</time>
      </trkpt>
      <trkpt lat="43.58806" lon="3.60965">
        <ele>248.23</ele>
        <time>2015-09-18T14:59:25Z</time>
      </trkpt>
      <trkpt lat="43.58818" lon="3.60962">
        <ele>250.37</ele>
        <time>2015-09-18T14:59:42Z</time>
      </trkpt>
      <trkpt lat="43.58831" lon="3.60957">
        <ele>251.91</ele>
        <time>2015-09-18T14:59:59Z</time>
      </trkpt>
      <trkpt lat="43.58842" lon="3.60955">
        <ele>253.63</ele>
        <time>2015-09-18T15:00:14Z</time>
      </trkpt>
      <trkpt lat="43.58855" lon="3.60948">
        <ele>255.46</ele>
        <time>2015-09-18T15:00:34Z</time>
      </trkpt>
      <trkpt lat="43.58865" lon="3.60944">
        <ele>256.64</ele>
        <time>2015-09-18T15:00:48Z</time>
      </trkpt>
      <trkpt lat="43.58876" lon="3.60941">
        <ele>258.34</ele>
        <time>2015-09-18T15:01:04Z</time>
      </trkpt>
      <trkpt lat="43.58886" lon="3.6094">
        <ele>258.8</ele>
        <time>2015-09-18T15:01:22Z</time>
      </trkpt>
      <trkpt lat="43.58893" lon="3.60935">
        <ele>259.69</ele>
        <time>2015-09-18T15:01:38Z</time>
      </trkpt>
      <trkpt lat="43.58898" lon="3.60922">
        <ele>260.17</ele>
        <time>2015-09-18T15:01:55Z</time>
      </trkpt>
      <trkpt lat="43.58901" lon="3.60916">
        <ele>260.8</ele>
        <time>2015-09-18T15:02:14Z</time>
      </trkpt>
      <trkpt lat="43.58909" lon="3.60901">
        <ele>262.58</ele>
        <time>2015-09-18T15:02:33Z</time>
      </trkpt>
      <trkpt lat="43.58911" lon="3.60897">
        <ele>262.87</ele>
        <time>2015-09-18T15:02:39Z</time>
      </trkpt>
      <trkpt lat="43.58919" lon="3.60882">
        <ele>263.5</ele>
        <time>2015-09-18T15:02:55Z</time>
      </trkpt>
      <trkpt lat="43.58922" lon="3.60879">
        <ele>263.71</ele>
        <time>2015-09-18T15:02:59Z</time>
      </trkpt>
      <trkpt lat="43.58928" lon="3.60865">
        <ele>263.81</ele>
        <time>2015-09-18T15:03:13Z</time>
      </trkpt>
      <trkpt lat="43.5893" lon="3.60862">
        <ele>263.87</ele>
        <time>2015-09-18T15:03:17Z</time>
      </trkpt>
      <trkpt lat="43.58941" lon="3.60859">
        <ele>263.93</ele>
        <time>2015-09-18T15:03:32Z</time>
      </trkpt>
      <trkpt lat="43.58949" lon="3.60863">
        <ele>263.18</ele>
        <time>2015-09-18T15:03:43Z</time>
      </trkpt>
      <trkpt lat="43.58952" lon="3.60871">
        <ele>263.66</ele>
        <time>2015-09-18T15:03:58Z</time>
      </trkpt>
      <trkpt lat="43.58957" lon="3.60874">
        <ele>263.28</ele>
        <time>2015-09-18T15:04:03Z</time>
      </trkpt>
      <trkpt lat="43.58964" lon="3.6088">
        <ele>263.93</ele>
        <time>2015-09-18T15:04:11Z</time>
      </trkpt>
      <trkpt lat="43.58971" lon="3.60889">
        <ele>263.52</ele>
        <time>2015-09-18T15:04:21Z</time>
      </trkpt>
      <trkpt lat="43.58977" lon="3.60896">
        <ele>263.78</ele>
        <time>2015-09-18T15:04:29Z</time>
      </trkpt>
      <trkpt lat="43.58989" lon="3.60903">
        <ele>264.05</ele>
        <time>2015-09-18T15:04:43Z</time>
      </trkpt>
      <trkpt lat="43.59002" lon="3.6091">
        <ele>264.23</ele>
        <time>2015-09-18T15:04:58Z</time>
      </trkpt>
      <trkpt lat="43.59019" lon="3.60917">
        <ele>265.31</ele>
        <time>2015-09-18T15:05:16Z</time>
      </trkpt>
      <trkpt lat="43.59031" lon="3.60916">
        <ele>265.96</ele>
        <time>2015-09-18T15:05:27Z</time>
      </trkpt>
      <trkpt lat="43.5904" lon="3.60914">
        <ele>266.81</ele>
        <time>2015-09-18T15:05:37Z</time>
      </trkpt>
      <trkpt lat="43.59046" lon="3.60912">
        <ele>266.87</ele>
        <time>2015-09-18T15:05:46Z</time>
      </trkpt>
      <trkpt lat="43.59049" lon="3.60912">
        <ele>267.18</ele>
        <time>2015-09-18T15:05:49Z</time>
      </trkpt>
      <trkpt lat="43.59051" lon="3.60911">
        <ele>267.73</ele>
        <time>2015-09-18T15:05:52Z</time>
      </trkpt>
      <trkpt lat="43.59059" lon="3.6091">
        <ele>267.97</ele>
        <time>2015-09-18T15:06:02Z</time>
      </trkpt>
      <trkpt lat="43.59065" lon="3.60909">
        <ele>269.14</ele>
        <time>2015-09-18T15:06:09Z</time>
      </trkpt>
      <trkpt lat="43.59068" lon="3.60908">
        <ele>269</ele>
        <time>2015-09-18T15:06:13Z</time>
      </trkpt>
      <trkpt lat="43.59076" lon="3.60905">
        <ele>269.85</ele>
        <time>2015-09-18T15:06:23Z</time>
      </trkpt>
      <trkpt lat="43.5908" lon="3.60904">
        <ele>270.18</ele>
        <time>2015-09-18T15:06:27Z</time>
      </trkpt>
      <trkpt lat="43.59095" lon="3.60906">
        <ele>271.52</ele>
        <time>2015-09-18T15:06:42Z</time>
      </trkpt>
      <trkpt lat="43.59102" lon="3.60908">
        <ele>271.5</ele>
        <time>2015-09-18T15:06:49Z</time>
      </trkpt>
      <trkpt lat="43.59116" lon="3.6091">
        <ele>273.25</ele>
        <time>2015-09-18T15:07:05Z</time>
      </trkpt>
      <trkpt lat="43.59128" lon="3.60912">
        <ele>274.25</ele>
        <time>2015-09-18T15:07:19Z</time>
      </trkpt>
      <trkpt lat="43.59132" lon="3.60913">
        <ele>275.01</ele>
        <time>2015-09-18T15:07:24Z</time>
      </trkpt>
      <trkpt lat="43.59144" lon="3.60914">
        <ele>275.04</ele>
        <time>2015-09-18T15:07:36Z</time>
      </trkpt>
      <trkpt lat="43.59158" lon="3.60916">
        <ele>276.31</ele>
        <time>2015-09-18T15:07:50Z</time>
      </trkpt>
      <trkpt lat="43.59168" lon="3.60918">
        <ele>276.7</ele>
        <time>2015-09-18T15:08:00Z</time>
      </trkpt>
      <trkpt lat="43.59179" lon="3.60925">
        <ele>277.7</ele>
        <time>2015-09-18T15:08:14Z</time>
      </trkpt>
      <trkpt lat="43.59186" lon="3.60929">
        <ele>278.63</ele>
        <time>2015-09-18T15:08:23Z</time>
      </trkpt>
      <trkpt lat="43.59195" lon="3.60933">
        <ele>279.58</ele>
        <time>2015-09-18T15:08:33Z</time>
      </trkpt>
      <trkpt lat="43.59203" lon="3.60934">
        <ele>279.43</ele>
        <time>2015-09-18T15:08:40Z</time>
      </trkpt>
      <trkpt lat="43.59215" lon="3.60938">
        <ele>279.49</ele>
        <time>2015-09-18T15:08:52Z</time>
      </trkpt>
      <trkpt lat="43.59224" lon="3.60943">
        <ele>280.11</ele>
        <time>2015-09-18T15:09:03Z</time>
      </trkpt>
      <trkpt lat="43.59226" lon="3.60945">
        <ele>279.84</ele>
        <time>2015-09-18T15:09:05Z</time>
      </trkpt>
      <trkpt lat="43.59239" lon="3.60952">
        <ele>280.34</ele>
        <time>2015-09-18T15:09:18Z</time>
      </trkpt>
      <trkpt lat="43.5925" lon="3.60964">
        <ele>281.19</ele>
        <time>2015-09-18T15:09:33Z</time>
      </trkpt>
      <trkpt lat="43.59256" lon="3.60972">
        <ele>281.87</ele>
        <time>2015-09-18T15:09:43Z</time>
      </trkpt>
      <trkpt lat="43.59263" lon="3.60974">
        <ele>282.63</ele>
        <time>2015-09-18T15:09:50Z</time>
      </trkpt>
      <trkpt lat="43.59268" lon="3.60975">
        <ele>283.72</ele>
        <time>2015-09-18T15:09:56Z</time>
      </trkpt>
      <trkpt lat="43.59271" lon="3.60975">
        <ele>283.07</ele>
        <time>2015-09-18T15:09:59Z</time>
      </trkpt>
      <trkpt lat="43.59275" lon="3.60975">
        <ele>283.62</ele>
        <time>2015-09-18T15:10:03Z</time>
      </trkpt>
      <trkpt lat="43.59277" lon="3.60976">
        <ele>282.84</ele>
        <time>2015-09-18T15:10:05Z</time>
      </trkpt>
      <trkpt lat="43.59281" lon="3.60979">
        <ele>283.32</ele>
        <time>2015-09-18T15:10:09Z</time>
      </trkpt>
      <trkpt lat="43.59284" lon="3.60984">
        <ele>283.49</ele>
        <time>2015-09-18T15:10:13Z</time>
      </trkpt>
      <trkpt lat="43.59285" lon="3.60986">
        <ele>283.43</ele>
        <time>2015-09-18T15:10:15Z</time>
      </trkpt>
      <trkpt lat="43.59291" lon="3.60993">
        <ele>283.85</ele>
        <time>2015-09-18T15:10:22Z</time>
      </trkpt>
      <trkpt lat="43.59296" lon="3.61001">
        <ele>284.68</ele>
        <time>2015-09-18T15:10:30Z</time>
      </trkpt>
      <trkpt lat="43.59299" lon="3.61003">
        <ele>285.12</ele>
        <time>2015-09-18T15:10:33Z</time>
      </trkpt>
      <trkpt lat="43.59306" lon="3.61011">
        <ele>285.57</ele>
        <time>2015-09-18T15:10:44Z</time>
      </trkpt>
      <trkpt lat="43.59312" lon="3.61017">
        <ele>285.35</ele>
        <time>2015-09-18T15:10:51Z</time>
      </trkpt>
      <trkpt lat="43.59316" lon="3.61022">
        <ele>285.37</ele>
        <time>2015-09-18T15:10:56Z</time>
      </trkpt>
      <trkpt lat="43.5932" lon="3.61024">
        <ele>285.25</ele>
        <time>2015-09-18T15:11:00Z</time>
      </trkpt>
      <trkpt lat="43.59329" lon="3.61033">
        <ele>285.83</ele>
        <time>2015-09-18T15:11:11Z</time>
      </trkpt>
      <trkpt lat="43.59332" lon="3.61035">
        <ele>284.78</ele>
        <time>2015-09-18T15:11:14Z</time>
      </trkpt>
      <trkpt lat="43.59343" lon="3.61045">
        <ele>284.58</ele>
        <time>2015-09-18T15:11:27Z</time>
      </trkpt>
      <trkpt lat="43.5935" lon="3.61052">
        <ele>284.41</ele>
        <time>2015-09-18T15:11:35Z</time>
      </trkpt>
      <trkpt lat="43.59354" lon="3.61058">
        <ele>284.91</ele>
        <time>2015-09-18T15:11:40Z</time>
      </trkpt>
      <trkpt lat="43.59359" lon="3.61061">
        <ele>284.88</ele>
        <time>2015-09-18T15:11:45Z</time>
      </trkpt>
      <trkpt lat="43.59369" lon="3.61074">
        <ele>284.78</ele>
        <time>2015-09-18T15:11:59Z</time>
      </trkpt>
      <trkpt lat="43.59371" lon="3.61078">
        <ele>285.14</ele>
        <time>2015-09-18T15:12:02Z</time>
      </trkpt>
      <trkpt lat="43.59373" lon="3.61084">
        <ele>284.58</ele>
        <time>2015-09-18T15:12:06Z</time>
      </trkpt>
      <trkpt lat="43.59378" lon="3.61089">
        <ele>285.15</ele>
        <time>2015-09-18T15:12:10Z</time>
      </trkpt>
      <trkpt lat="43.59387" lon="3.61099">
        <ele>285.18</ele>
        <time>2015-09-18T15:12:20Z</time>
      </trkpt>
      <trkpt lat="43.59389" lon="3.61103">
        <ele>285.75</ele>
        <time>2015-09-18T15:12:23Z</time>
      </trkpt>
      <trkpt lat="43.59396" lon="3.61114">
        <ele>286.19</ele>
        <time>2015-09-18T15:12:32Z</time>
      </trkpt>
      <trkpt lat="43.59406" lon="3.61109">
        <ele>286.01</ele>
        <time>2015-09-18T15:12:42Z</time>
      </trkpt>
      <trkpt lat="43.59413" lon="3.61107">
        <ele>285.99</ele>
        <time>2015-09-18T15:12:48Z</time>
      </trkpt>
      <trkpt lat="43.59416" lon="3.61109">
        <ele>285.66</ele>
        <time>2015-09-18T15:12:52Z</time>
      </trkpt>
      <trkpt lat="43.59426" lon="3.6112">
        <ele>286.54</ele>
        <time>2015-09-18T15:13:10Z</time>
      </trkpt>
      <trkpt lat="43.59435" lon="3.61124">
        <ele>286.13</ele>
        <time>2015-09-18T15:13:23Z</time>
      </trkpt>
      <trkpt lat="43.59441" lon="3.61126">
        <ele>286.41</ele>
        <time>2015-09-18T15:13:30Z</time>
      </trkpt>
      <trkpt lat="43.59444" lon="3.61124">
        <ele>285.69</ele>
        <time>2015-09-18T15:13:33Z</time>
      </trkpt>
      <trkpt lat="43.59446" lon="3.61124">
        <ele>287.61</ele>
        <time>2015-09-18T15:13:35Z</time>
      </trkpt>
      <trkpt lat="43.59463" lon="3.61118">
        <ele>285.47</ele>
        <time>2015-09-18T15:13:52Z</time>
      </trkpt>
      <trkpt lat="43.59481" lon="3.61106">
        <ele>282.82</ele>
        <time>2015-09-18T15:14:12Z</time>
      </trkpt>
      <trkpt lat="43.59491" lon="3.61097">
        <ele>282.33</ele>
        <time>2015-09-18T15:14:28Z</time>
      </trkpt>
      <trkpt lat="43.59493" lon="3.61095">
        <ele>281.96</ele>
        <time>2015-09-18T15:14:35Z</time>
      </trkpt>
      <trkpt lat="43.5951" lon="3.61079">
        <ele>278.6</ele>
        <time>2015-09-18T15:14:55Z</time>
      </trkpt>
      <trkpt lat="43.59517" lon="3.61061">
        <ele>277.5</ele>
        <time>2015-09-18T15:15:10Z</time>
      </trkpt>
      <trkpt lat="43.59519" lon="3.61048">
        <ele>276.73</ele>
        <time>2015-09-18T15:15:21Z</time>
      </trkpt>
      <trkpt lat="43.59523" lon="3.61042">
        <ele>276.54</ele>
        <time>2015-09-18T15:15:36Z</time>
      </trkpt>
      <trkpt lat="43.59525" lon="3.61031">
        <ele>275.36</ele>
        <time>2015-09-18T15:15:46Z</time>
      </trkpt>
      <trkpt lat="43.59533" lon="3.61012">
        <ele>274.5</ele>
        <time>2015-09-18T15:16:02Z</time>
      </trkpt>
      <trkpt lat="43.59544" lon="3.60996">
        <ele>274.52</ele>
        <time>2015-09-18T15:16:18Z</time>
      </trkpt>
      <trkpt lat="43.59549" lon="3.60994">
        <ele>274.35</ele>
        <time>2015-09-18T15:16:23Z</time>
      </trkpt>
      <trkpt lat="43.59551" lon="3.60994">
        <ele>274.48</ele>
        <time>2015-09-18T15:16:25Z</time>
      </trkpt>
      <trkpt lat="43.59565" lon="3.60988">
        <ele>273.34</ele>
        <time>2015-09-18T15:16:43Z</time>
      </trkpt>
      <trkpt lat="43.5958" lon="3.60981">
        <ele>272.79</ele>
        <time>2015-09-18T15:17:02Z</time>
      </trkpt>
      <trkpt lat="43.59593" lon="3.60971">
        <ele>273.07</ele>
        <time>2015-09-18T15:17:19Z</time>
      </trkpt>
      <trkpt lat="43.59602" lon="3.60975">
        <ele>275.53</ele>
        <time>2015-09-18T15:17:36Z</time>
      </trkpt>
      <trkpt lat="43.59613" lon="3.60981">
        <ele>275.34</ele>
        <time>2015-09-18T15:17:52Z</time>
      </trkpt>
      <trkpt lat="43.59616" lon="3.60982">
        <ele>275.76</ele>
        <time>2015-09-18T15:17:57Z</time>
      </trkpt>
      <trkpt lat="43.59632" lon="3.60979">
        <ele>276.78</ele>
        <time>2015-09-18T15:18:15Z</time>
      </trkpt>
      <trkpt lat="43.59638" lon="3.60984">
        <ele>277.38</ele>
        <time>2015-09-18T15:18:28Z</time>
      </trkpt>
      <trkpt lat="43.59642" lon="3.60992">
        <ele>278.11</ele>
        <time>2015-09-18T15:18:42Z</time>
      </trkpt>
      <trkpt lat="43.59641" lon="3.61002">
        <ele>278.02</ele>
        <time>2015-09-18T15:18:55Z</time>
      </trkpt>
      <trkpt lat="43.59647" lon="3.61009">
        <ele>278.74</ele>
        <time>2015-09-18T15:19:11Z</time>
      </trkpt>
      <trkpt lat="43.59653" lon="3.61006">
        <ele>278.89</ele>
        <time>2015-09-18T15:19:28Z</time>
      </trkpt>
      <trkpt lat="43.5966" lon="3.61001">
        <ele>279.51</ele>
        <time>2015-09-18T15:19:45Z</time>
      </trkpt>
      <trkpt lat="43.59672" lon="3.61007">
        <ele>279.8</ele>
        <time>2015-09-18T15:20:00Z</time>
      </trkpt>
      <trkpt lat="43.59685" lon="3.61006">
        <ele>280.71</ele>
        <time>2015-09-18T15:20:15Z</time>
      </trkpt>
      <trkpt lat="43.59698" lon="3.60993">
        <ele>280.83</ele>
        <time>2015-09-18T15:20:32Z</time>
      </trkpt>
      <trkpt lat="43.59706" lon="3.60971">
        <ele>280.86</ele>
        <time>2015-09-18T15:20:49Z</time>
      </trkpt>
      <trkpt lat="43.59719" lon="3.60961">
        <ele>281.83</ele>
        <time>2015-09-18T15:21:06Z</time>
      </trkpt>
      <trkpt lat="43.59732" lon="3.60963">
        <ele>281.49</ele>
        <time>2015-09-18T15:21:22Z</time>
      </trkpt>
      <trkpt lat="43.59735" lon="3.60962">
        <ele>281.31</ele>
        <time>2015-09-18T15:21:38Z</time>
      </trkpt>
      <trkpt lat="43.59733" lon="3.60971">
        <ele>280.28</ele>
        <time>2015-09-18T15:21:55Z</time>
      </trkpt>
      <trkpt lat="43.59732" lon="3.60972">
        <ele>280.08</ele>
        <time>2015-09-18T15:22:14Z</time>
      </trkpt>
      <trkpt lat="43.59737" lon="3.60967">
        <ele>280.49</ele>
        <time>2015-09-18T15:22:28Z</time>
      </trkpt>
      <trkpt lat="43.5974" lon="3.60962">
        <ele>281.37</ele>
        <time>2015-09-18T15:22:44Z</time>
      </trkpt>
      <trkpt lat="43.59739" lon="3.60964">
        <ele>281.43</ele>
        <time>2015-09-18T15:23:25Z</time>
      </trkpt>
      <trkpt lat="43.59738" lon="3.60957">
        <ele>281.59</ele>
        <time>2015-09-18T15:23:48Z</time>
      </trkpt>
      <trkpt lat="43.59743" lon="3.60931">
        <ele>282.68</ele>
        <time>2015-09-18T15:24:10Z</time>
      </trkpt>
      <trkpt lat="43.59747" lon="3.60918">
        <ele>281.41</ele>
        <time>2015-09-18T15:24:24Z</time>
      </trkpt>
      <trkpt lat="43.59744" lon="3.60908">
        <ele>280.81</ele>
        <time>2015-09-18T15:24:41Z</time>
      </trkpt>
      <trkpt lat="43.59742" lon="3.60898">
        <ele>277.58</ele>
        <time>2015-09-18T15:24:53Z</time>
      </trkpt>
      <trkpt lat="43.59737" lon="3.6089">
        <ele>275.63</ele>
        <time>2015-09-18T15:25:04Z</time>
      </trkpt>
      <trkpt lat="43.59752" lon="3.60887">
        <ele>277.9</ele>
        <time>2015-09-18T15:25:20Z</time>
      </trkpt>
      <trkpt lat="43.59761" lon="3.60884">
        <ele>280.41</ele>
        <time>2015-09-18T15:25:37Z</time>
      </trkpt>
      <trkpt lat="43.59771" lon="3.60872">
        <ele>280.95</ele>
        <time>2015-09-18T15:25:53Z</time>
      </trkpt>
      <trkpt lat="43.5978" lon="3.60877">
        <ele>282.8</ele>
        <time>2015-09-18T15:26:10Z</time>
      </trkpt>
      <trkpt lat="43.59776" lon="3.60879">
        <ele>285.34</ele>
        <time>2015-09-18T15:26:26Z</time>
      </trkpt>
      <trkpt lat="43.59775" lon="3.60882">
        <ele>287.7</ele>
        <time>2015-09-18T15:26:35Z</time>
      </trkpt>
      <trkpt lat="43.59776" lon="3.60886">
        <ele>286.87</ele>
        <time>2015-09-18T15:26:58Z</time>
      </trkpt>
      <trkpt lat="43.59772" lon="3.60888">
        <ele>286.09</ele>
        <time>2015-09-18T15:27:22Z</time>
      </trkpt>
      <trkpt lat="43.59772" lon="3.60884">
        <ele>285.24</ele>
        <time>2015-09-18T15:27:27Z</time>
      </trkpt>
      <trkpt lat="43.59773" lon="3.6088">
        <ele>284.26</ele>
        <time>2015-09-18T15:27:34Z</time>
      </trkpt>
      <trkpt lat="43.59781" lon="3.60885">
        <ele>284.74</ele>
        <time>2015-09-18T15:27:51Z</time>
      </trkpt>
      <trkpt lat="43.59786" lon="3.60886">
        <ele>284.83</ele>
        <time>2015-09-18T15:27:59Z</time>
      </trkpt>
      <trkpt lat="43.59791" lon="3.60887">
        <ele>285.05</ele>
        <time>2015-09-18T15:28:24Z</time>
      </trkpt>
      <trkpt lat="43.59791" lon="3.60887">
        <ele>283.85</ele>
        <time>2015-09-18T15:28:51Z</time>
      </trkpt>
      <trkpt lat="43.59795" lon="3.60889">
        <ele>284.18</ele>
        <time>2015-09-18T15:29:18Z</time>
      </trkpt>
      <trkpt lat="43.59797" lon="3.60889">
        <ele>283.86</ele>
        <time>2015-09-18T15:29:38Z</time>
      </trkpt>
      <trkpt lat="43.59796" lon="3.60888">
        <ele>283.23</ele>
        <time>2015-09-18T15:29:42Z</time>
      </trkpt>
      <trkpt lat="43.59795" lon="3.60889">
        <ele>283.53</ele>
        <time>2015-09-18T15:30:06Z</time>
      </trkpt>
      <trkpt lat="43.59795" lon="3.60886">
        <ele>283.63</ele>
        <time>2015-09-18T15:30:33Z</time>
      </trkpt>
      <trkpt lat="43.59791" lon="3.60884">
        <ele>284.83</ele>
        <time>2015-09-18T15:31:00Z</time>
      </trkpt>
      <trkpt lat="43.59788" lon="3.60881">
        <ele>284.17</ele>
        <time>2015-09-18T15:31:21Z</time>
      </trkpt>
      <trkpt lat="43.59787" lon="3.6088">
        <ele>283.31</ele>
        <time>2015-09-18T15:31:47Z</time>
      </trkpt>
      <trkpt lat="43.59787" lon="3.60879">
        <ele>282.85</ele>
        <time>2015-09-18T15:32:27Z</time>
      </trkpt>
      <trkpt lat="43.59786" lon="3.60881">
        <ele>283.95</ele>
        <time>2015-09-18T15:32:55Z</time>
      </trkpt>
      <trkpt lat="43.59781" lon="3.60873">
        <ele>282.2</ele>
        <time>2015-09-18T15:33:13Z</time>
      </trkpt>
      <trkpt lat="43.59782" lon="3.60873">
        <ele>282.55</ele>
        <time>2015-09-18T15:33:42Z</time>
      </trkpt>
      <trkpt lat="43.59776" lon="3.60872">
        <ele>281.64</ele>
        <time>2015-09-18T15:33:52Z</time>
      </trkpt>
      <trkpt lat="43.59766" lon="3.60878">
        <ele>281.01</ele>
        <time>2015-09-18T15:34:10Z</time>
      </trkpt>
      <trkpt lat="43.59761" lon="3.60882">
        <ele>280.6</ele>
        <time>2015-09-18T15:34:24Z</time>
      </trkpt>
      <trkpt lat="43.59754" lon="3.60884">
        <ele>278.56</ele>
        <time>2015-09-18T15:34:38Z</time>
      </trkpt>
      <trkpt lat="43.59741" lon="3.60886">
        <ele>276.15</ele>
        <time>2015-09-18T15:34:55Z</time>
      </trkpt>
      <trkpt lat="43.59739" lon="3.60887">
        <ele>276.38</ele>
        <time>2015-09-18T15:34:58Z</time>
      </trkpt>
      <trkpt lat="43.59739" lon="3.60898">
        <ele>278.26</ele>
        <time>2015-09-18T15:35:12Z</time>
      </trkpt>
      <trkpt lat="43.59743" lon="3.60905">
        <ele>281.36</ele>
        <time>2015-09-18T15:35:23Z</time>
      </trkpt>
      <trkpt lat="43.59742" lon="3.60921">
        <ele>281.94</ele>
        <time>2015-09-18T15:35:38Z</time>
      </trkpt>
      <trkpt lat="43.59743" lon="3.60928">
        <ele>282.35</ele>
        <time>2015-09-18T15:35:45Z</time>
      </trkpt>
      <trkpt lat="43.59738" lon="3.60952">
        <ele>281.94</ele>
        <time>2015-09-18T15:36:04Z</time>
      </trkpt>
      <trkpt lat="43.59737" lon="3.60959">
        <ele>281.1</ele>
        <time>2015-09-18T15:36:14Z</time>
      </trkpt>
      <trkpt lat="43.59743" lon="3.60969">
        <ele>280.95</ele>
        <time>2015-09-18T15:36:24Z</time>
      </trkpt>
      <trkpt lat="43.59762" lon="3.60962">
        <ele>280.84</ele>
        <time>2015-09-18T15:36:44Z</time>
      </trkpt>
      <trkpt lat="43.59782" lon="3.60951">
        <ele>280.37</ele>
        <time>2015-09-18T15:37:04Z</time>
      </trkpt>
      <trkpt lat="43.59794" lon="3.60944">
        <ele>279.22</ele>
        <time>2015-09-18T15:37:20Z</time>
      </trkpt>
      <trkpt lat="43.59798" lon="3.60934">
        <ele>278.75</ele>
        <time>2015-09-18T15:37:34Z</time>
      </trkpt>
      <trkpt lat="43.598" lon="3.60934">
        <ele>278.8</ele>
        <time>2015-09-18T15:37:48Z</time>
      </trkpt>
      <trkpt lat="43.598" lon="3.60924">
        <ele>278.96</ele>
        <time>2015-09-18T15:38:02Z</time>
      </trkpt>
      <trkpt lat="43.59803" lon="3.60918">
        <ele>275.83</ele>
        <time>2015-09-18T15:38:19Z</time>
      </trkpt>
      <trkpt lat="43.59804" lon="3.60917">
        <ele>275.21</ele>
        <time>2015-09-18T15:38:40Z</time>
      </trkpt>
      <trkpt lat="43.59804" lon="3.60921">
        <ele>273.98</ele>
        <time>2015-09-18T15:39:05Z</time>
      </trkpt>
      <trkpt lat="43.59808" lon="3.60933">
        <ele>275.24</ele>
        <time>2015-09-18T15:39:51Z</time>
      </trkpt>
      <trkpt lat="43.59805" lon="3.60934">
        <ele>274.63</ele>
        <time>2015-09-18T15:40:26Z</time>
      </trkpt>
      <trkpt lat="43.59803" lon="3.60918">
        <ele>273.53</ele>
        <time>2015-09-18T15:40:39Z</time>
      </trkpt>
      <trkpt lat="43.598" lon="3.60912">
        <ele>275.28</ele>
        <time>2015-09-18T15:40:42Z</time>
      </trkpt>
      <trkpt lat="43.59799" lon="3.60911">
        <ele>275.26</ele>
        <time>2015-09-18T15:40:47Z</time>
      </trkpt>
      <trkpt lat="43.59796" lon="3.60912">
        <ele>278.63</ele>
        <time>2015-09-18T15:40:51Z</time>
      </trkpt>
      <trkpt lat="43.59795" lon="3.60912">
        <ele>278.75</ele>
        <time>2015-09-18T15:40:52Z</time>
      </trkpt>
      <trkpt lat="43.59793" lon="3.60916">
        <ele>279.17</ele>
        <time>2015-09-18T15:40:57Z</time>
      </trkpt>
      <trkpt lat="43.59795" lon="3.60934">
        <ele>281.37</ele>
        <time>2015-09-18T15:41:12Z</time>
      </trkpt>
      <trkpt lat="43.59791" lon="3.60936">
        <ele>281.4</ele>
        <time>2015-09-18T15:41:17Z</time>
      </trkpt>
      <trkpt lat="43.59785" lon="3.60941">
        <ele>281.46</ele>
        <time>2015-09-18T15:41:23Z</time>
      </trkpt>
      <trkpt lat="43.59782" lon="3.60945">
        <ele>281.88</ele>
        <time>2015-09-18T15:41:27Z</time>
      </trkpt>
      <trkpt lat="43.59773" lon="3.60951">
        <ele>281.57</ele>
        <time>2015-09-18T15:41:36Z</time>
      </trkpt>
      <trkpt lat="43.5977" lon="3.60954">
        <ele>281.68</ele>
        <time>2015-09-18T15:41:39Z</time>
      </trkpt>
      <trkpt lat="43.59758" lon="3.6096">
        <ele>281.17</ele>
        <time>2015-09-18T15:41:52Z</time>
      </trkpt>
      <trkpt lat="43.59744" lon="3.60964">
        <ele>280.51</ele>
        <time>2015-09-18T15:42:07Z</time>
      </trkpt>
      <trkpt lat="43.59733" lon="3.60972">
        <ele>280.61</ele>
        <time>2015-09-18T15:42:18Z</time>
      </trkpt>
      <trkpt lat="43.59724" lon="3.60989">
        <ele>280.46</ele>
        <time>2015-09-18T15:42:32Z</time>
      </trkpt>
      <trkpt lat="43.59719" lon="3.61001">
        <ele>280.48</ele>
        <time>2015-09-18T15:42:42Z</time>
      </trkpt>
      <trkpt lat="43.59716" lon="3.61017">
        <ele>280.5</ele>
        <time>2015-09-18T15:42:54Z</time>
      </trkpt>
      <trkpt lat="43.59714" lon="3.61027">
        <ele>280.41</ele>
        <time>2015-09-18T15:43:08Z</time>
      </trkpt>
      <trkpt lat="43.59712" lon="3.61036">
        <ele>280.57</ele>
        <time>2015-09-18T15:43:15Z</time>
      </trkpt>
      <trkpt lat="43.59712" lon="3.61039">
        <ele>280.4</ele>
        <time>2015-09-18T15:43:17Z</time>
      </trkpt>
      <trkpt lat="43.59711" lon="3.61041">
        <ele>280.82</ele>
        <time>2015-09-18T15:43:19Z</time>
      </trkpt>
      <trkpt lat="43.59702" lon="3.61062">
        <ele>281.24</ele>
        <time>2015-09-18T15:43:37Z</time>
      </trkpt>
      <trkpt lat="43.59696" lon="3.61082">
        <ele>281.55</ele>
        <time>2015-09-18T15:43:51Z</time>
      </trkpt>
      <trkpt lat="43.59682" lon="3.61104">
        <ele>281.58</ele>
        <time>2015-09-18T15:44:10Z</time>
      </trkpt>
      <trkpt lat="43.59676" lon="3.61119">
        <ele>282.83</ele>
        <time>2015-09-18T15:44:21Z</time>
      </trkpt>
      <trkpt lat="43.5967" lon="3.61144">
        <ele>282.82</ele>
        <time>2015-09-18T15:44:37Z</time>
      </trkpt>
      <trkpt lat="43.59664" lon="3.61164">
        <ele>284.99</ele>
        <time>2015-09-18T15:44:52Z</time>
      </trkpt>
      <trkpt lat="43.59659" lon="3.61184">
        <ele>284.6</ele>
        <time>2015-09-18T15:45:06Z</time>
      </trkpt>
      <trkpt lat="43.59659" lon="3.61193">
        <ele>285.14</ele>
        <time>2015-09-18T15:45:13Z</time>
      </trkpt>
      <trkpt lat="43.59659" lon="3.61218">
        <ele>288.68</ele>
        <time>2015-09-18T15:45:31Z</time>
      </trkpt>
      <trkpt lat="43.59659" lon="3.61222">
        <ele>288.75</ele>
        <time>2015-09-18T15:45:34Z</time>
      </trkpt>
      <trkpt lat="43.5966" lon="3.61224">
        <ele>288.12</ele>
        <time>2015-09-18T15:45:36Z</time>
      </trkpt>
      <trkpt lat="43.59662" lon="3.61243">
        <ele>288.76</ele>
        <time>2015-09-18T15:45:49Z</time>
      </trkpt>
      <trkpt lat="43.59659" lon="3.61262">
        <ele>289.65</ele>
        <time>2015-09-18T15:46:03Z</time>
      </trkpt>
      <trkpt lat="43.59653" lon="3.61283">
        <ele>290.73</ele>
        <time>2015-09-18T15:46:18Z</time>
      </trkpt>
      <trkpt lat="43.59648" lon="3.6131">
        <ele>290.8</ele>
        <time>2015-09-18T15:46:36Z</time>
      </trkpt>
      <trkpt lat="43.59647" lon="3.61326">
        <ele>290.74</ele>
        <time>2015-09-18T15:46:48Z</time>
      </trkpt>
      <trkpt lat="43.59648" lon="3.61345">
        <ele>289.57</ele>
        <time>2015-09-18T15:46:59Z</time>
      </trkpt>
      <trkpt lat="43.59649" lon="3.6135">
        <ele>289.44</ele>
        <time>2015-09-18T15:47:03Z</time>
      </trkpt>
      <trkpt lat="43.59652" lon="3.61369">
        <ele>289.17</ele>
        <time>2015-09-18T15:47:16Z</time>
      </trkpt>
      <trkpt lat="43.59653" lon="3.61394">
        <ele>287.6</ele>
        <time>2015-09-18T15:47:35Z</time>
      </trkpt>
      <trkpt lat="43.59654" lon="3.61398">
        <ele>287.34</ele>
        <time>2015-09-18T15:47:38Z</time>
      </trkpt>
      <trkpt lat="43.59661" lon="3.61419">
        <ele>286.62</ele>
        <time>2015-09-18T15:47:53Z</time>
      </trkpt>
      <trkpt lat="43.59669" lon="3.61437">
        <ele>285.83</ele>
        <time>2015-09-18T15:48:07Z</time>
      </trkpt>
      <trkpt lat="43.59677" lon="3.6146">
        <ele>285.17</ele>
        <time>2015-09-18T15:48:22Z</time>
      </trkpt>
      <trkpt lat="43.59678" lon="3.61461">
        <ele>285.57</ele>
        <time>2015-09-18T15:48:23Z</time>
      </trkpt>
      <trkpt lat="43.59681" lon="3.61468">
        <ele>285.6</ele>
        <time>2015-09-18T15:48:29Z</time>
      </trkpt>
      <trkpt lat="43.59686" lon="3.61478">
        <ele>286.46</ele>
        <time>2015-09-18T15:48:37Z</time>
      </trkpt>
      <trkpt lat="43.59689" lon="3.61485">
        <ele>285.67</ele>
        <time>2015-09-18T15:48:42Z</time>
      </trkpt>
      <trkpt lat="43.59702" lon="3.61504">
        <ele>287.34</ele>
        <time>2015-09-18T15:49:00Z</time>
      </trkpt>
      <trkpt lat="43.59716" lon="3.61512">
        <ele>286.62</ele>
        <time>2015-09-18T15:49:13Z</time>
      </trkpt>
      <trkpt lat="43.59717" lon="3.61512">
        <ele>285.4</ele>
        <time>2015-09-18T15:49:24Z</time>
      </trkpt>
      <trkpt lat="43.59717" lon="3.61511">
        <ele>282.29</ele>
        <time>2015-09-18T15:49:34Z</time>
      </trkpt>
      <trkpt lat="43.59717" lon="3.61511">
        <ele>287.22</ele>
        <time>2015-09-18T15:49:35Z</time>
      </trkpt>
      <trkpt lat="43.59717" lon="3.61512">
        <ele>288.76</ele>
        <time>2015-09-18T15:49:39Z</time>
      </trkpt>
      <trkpt lat="43.59724" lon="3.61518">
        <ele>288.81</ele>
        <time>2015-09-18T15:49:57Z</time>
      </trkpt>
      <trkpt lat="43.59735" lon="3.61537">
        <ele>288.85</ele>
        <time>2015-09-18T15:50:14Z</time>
      </trkpt>
      <trkpt lat="43.59744" lon="3.61564">
        <ele>290.08</ele>
        <time>2015-09-18T15:50:34Z</time>
      </trkpt>
      <trkpt lat="43.5976" lon="3.61582">
        <ele>290.4</ele>
        <time>2015-09-18T15:50:52Z</time>
      </trkpt>
      <trkpt lat="43.59783" lon="3.61584">
        <ele>289.79</ele>
        <time>2015-09-18T15:51:13Z</time>
      </trkpt>
      <trkpt lat="43.59808" lon="3.61588">
        <ele>289.9</ele>
        <time>2015-09-18T15:51:35Z</time>
      </trkpt>
      <trkpt lat="43.59827" lon="3.61606">
        <ele>290.42</ele>
        <time>2015-09-18T15:51:54Z</time>
      </trkpt>
      <trkpt lat="43.59847" lon="3.61628">
        <ele>289.33</ele>
        <time>2015-09-18T15:52:16Z</time>
      </trkpt>
      <trkpt lat="43.59861" lon="3.61639">
        <ele>289.64</ele>
        <time>2015-09-18T15:52:32Z</time>
      </trkpt>
      <trkpt lat="43.59882" lon="3.61659">
        <ele>289.65</ele>
        <time>2015-09-18T15:52:54Z</time>
      </trkpt>
      <trkpt lat="43.59899" lon="3.61675">
        <ele>290.62</ele>
        <time>2015-09-18T15:53:12Z</time>
      </trkpt>
      <trkpt lat="43.59916" lon="3.61695">
        <ele>289.43</ele>
        <time>2015-09-18T15:53:32Z</time>
      </trkpt>
      <trkpt lat="43.59929" lon="3.61719">
        <ele>289.99</ele>
        <time>2015-09-18T15:53:51Z</time>
      </trkpt>
      <trkpt lat="43.59949" lon="3.61742">
        <ele>289.71</ele>
        <time>2015-09-18T15:54:14Z</time>
      </trkpt>
      <trkpt lat="43.59969" lon="3.61762">
        <ele>289.62</ele>
        <time>2015-09-18T15:54:36Z</time>
      </trkpt>
      <trkpt lat="43.59986" lon="3.61791">
        <ele>288.89</ele>
        <time>2015-09-18T15:55:00Z</time>
      </trkpt>
      <trkpt lat="43.60003" lon="3.61813">
        <ele>288.97</ele>
        <time>2015-09-18T15:55:20Z</time>
      </trkpt>
      <trkpt lat="43.60018" lon="3.61829">
        <ele>288.45</ele>
        <time>2015-09-18T15:55:37Z</time>
      </trkpt>
      <trkpt lat="43.60023" lon="3.61834">
        <ele>288.24</ele>
        <time>2015-09-18T15:55:43Z</time>
      </trkpt>
      <trkpt lat="43.60041" lon="3.61851">
        <ele>287.7</ele>
        <time>2015-09-18T15:56:01Z</time>
      </trkpt>
      <trkpt lat="43.60054" lon="3.61868">
        <ele>287.92</ele>
        <time>2015-09-18T15:56:17Z</time>
      </trkpt>
      <trkpt lat="43.60064" lon="3.61883">
        <ele>287.77</ele>
        <time>2015-09-18T15:56:30Z</time>
      </trkpt>
      <trkpt lat="43.60075" lon="3.61897">
        <ele>286.09</ele>
        <time>2015-09-18T15:56:44Z</time>
      </trkpt>
      <trkpt lat="43.60078" lon="3.61902">
        <ele>285.92</ele>
        <time>2015-09-18T15:56:48Z</time>
      </trkpt>
      <trkpt lat="43.60093" lon="3.61917">
        <ele>284.17</ele>
        <time>2015-09-18T15:57:04Z</time>
      </trkpt>
      <trkpt lat="43.60109" lon="3.61919">
        <ele>284.43</ele>
        <time>2015-09-18T15:57:20Z</time>
      </trkpt>
      <trkpt lat="43.60126" lon="3.61928">
        <ele>283.99</ele>
        <time>2015-09-18T15:57:37Z</time>
      </trkpt>
      <trkpt lat="43.60141" lon="3.61939">
        <ele>283.99</ele>
        <time>2015-09-18T15:57:54Z</time>
      </trkpt>
      <trkpt lat="43.60142" lon="3.6194">
        <ele>283.98</ele>
        <time>2015-09-18T15:57:56Z</time>
      </trkpt>
      <trkpt lat="43.60153" lon="3.61953">
        <ele>284.2</ele>
        <time>2015-09-18T15:58:09Z</time>
      </trkpt>
      <trkpt lat="43.6016" lon="3.61961">
        <ele>284.25</ele>
        <time>2015-09-18T15:58:16Z</time>
      </trkpt>
      <trkpt lat="43.60174" lon="3.61975">
        <ele>285.05</ele>
        <time>2015-09-18T15:58:31Z</time>
      </trkpt>
      <trkpt lat="43.6019" lon="3.6199">
        <ele>285.3</ele>
        <time>2015-09-18T15:58:46Z</time>
      </trkpt>
      <trkpt lat="43.60199" lon="3.62005">
        <ele>285.46</ele>
        <time>2015-09-18T15:59:00Z</time>
      </trkpt>
      <trkpt lat="43.60205" lon="3.62015">
        <ele>285.52</ele>
        <time>2015-09-18T15:59:08Z</time>
      </trkpt>
      <trkpt lat="43.60218" lon="3.62029">
        <ele>285.13</ele>
        <time>2015-09-18T15:59:22Z</time>
      </trkpt>
      <trkpt lat="43.6023" lon="3.62041">
        <ele>285.6</ele>
        <time>2015-09-18T15:59:35Z</time>
      </trkpt>
      <trkpt lat="43.60235" lon="3.62047">
        <ele>286.02</ele>
        <time>2015-09-18T15:59:42Z</time>
      </trkpt>
      <trkpt lat="43.60246" lon="3.62067">
        <ele>286.93</ele>
        <time>2015-09-18T15:59:59Z</time>
      </trkpt>
      <trkpt lat="43.60259" lon="3.62085">
        <ele>288.38</ele>
        <time>2015-09-18T16:00:15Z</time>
      </trkpt>
      <trkpt lat="43.60262" lon="3.6211">
        <ele>287.7</ele>
        <time>2015-09-18T16:00:33Z</time>
      </trkpt>
      <trkpt lat="43.60263" lon="3.62116">
        <ele>287.34</ele>
        <time>2015-09-18T16:00:38Z</time>
      </trkpt>
      <trkpt lat="43.60264" lon="3.62123">
        <ele>287.18</ele>
        <time>2015-09-18T16:00:43Z</time>
      </trkpt>
      <trkpt lat="43.60265" lon="3.62125">
        <ele>287.47</ele>
        <time>2015-09-18T16:00:45Z</time>
      </trkpt>
      <trkpt lat="43.6027" lon="3.62144">
        <ele>285.93</ele>
        <time>2015-09-18T16:00:59Z</time>
      </trkpt>
      <trkpt lat="43.60272" lon="3.62149">
        <ele>285.94</ele>
        <time>2015-09-18T16:01:03Z</time>
      </trkpt>
      <trkpt lat="43.60279" lon="3.62165">
        <ele>285.03</ele>
        <time>2015-09-18T16:01:17Z</time>
      </trkpt>
      <trkpt lat="43.60286" lon="3.62184">
        <ele>283.93</ele>
        <time>2015-09-18T16:01:32Z</time>
      </trkpt>
      <trkpt lat="43.60292" lon="3.62192">
        <ele>282.61</ele>
        <time>2015-09-18T16:01:40Z</time>
      </trkpt>
      <trkpt lat="43.60297" lon="3.62199">
        <ele>281.57</ele>
        <time>2015-09-18T16:01:48Z</time>
      </trkpt>
      <trkpt lat="43.60302" lon="3.62207">
        <ele>281.85</ele>
        <time>2015-09-18T16:01:54Z</time>
      </trkpt>
      <trkpt lat="43.60308" lon="3.6223">
        <ele>282.14</ele>
        <time>2015-09-18T16:02:09Z</time>
      </trkpt>
      <trkpt lat="43.60311" lon="3.62241">
        <ele>280.82</ele>
        <time>2015-09-18T16:02:17Z</time>
      </trkpt>
      <trkpt lat="43.6032" lon="3.62265">
        <ele>279.95</ele>
        <time>2015-09-18T16:02:34Z</time>
      </trkpt>
      <trkpt lat="43.60327" lon="3.62283">
        <ele>280.21</ele>
        <time>2015-09-18T16:02:49Z</time>
      </trkpt>
      <trkpt lat="43.60333" lon="3.623">
        <ele>281.52</ele>
        <time>2015-09-18T16:03:01Z</time>
      </trkpt>
      <trkpt lat="43.60337" lon="3.62308">
        <ele>281.61</ele>
        <time>2015-09-18T16:03:07Z</time>
      </trkpt>
      <trkpt lat="43.6034" lon="3.62312">
        <ele>281.68</ele>
        <time>2015-09-18T16:03:10Z</time>
      </trkpt>
      <trkpt lat="43.60345" lon="3.62324">
        <ele>282.24</ele>
        <time>2015-09-18T16:03:19Z</time>
      </trkpt>
      <trkpt lat="43.60356" lon="3.62336">
        <ele>282.51</ele>
        <time>2015-09-18T16:03:31Z</time>
      </trkpt>
      <trkpt lat="43.60362" lon="3.62355">
        <ele>282.07</ele>
        <time>2015-09-18T16:03:46Z</time>
      </trkpt>
      <trkpt lat="43.60366" lon="3.62373">
        <ele>282.09</ele>
        <time>2015-09-18T16:03:59Z</time>
      </trkpt>
      <trkpt lat="43.60368" lon="3.62379">
        <ele>280.66</ele>
        <time>2015-09-18T16:04:03Z</time>
      </trkpt>
      <trkpt lat="43.60369" lon="3.62383">
        <ele>280.45</ele>
        <time>2015-09-18T16:04:06Z</time>
      </trkpt>
      <trkpt lat="43.6037" lon="3.62386">
        <ele>280.76</ele>
        <time>2015-09-18T16:04:08Z</time>
      </trkpt>
      <trkpt lat="43.60371" lon="3.62393">
        <ele>279.96</ele>
        <time>2015-09-18T16:04:13Z</time>
      </trkpt>
      <trkpt lat="43.60371" lon="3.62396">
        <ele>280.53</ele>
        <time>2015-09-18T16:04:15Z</time>
      </trkpt>
      <trkpt lat="43.60371" lon="3.62407">
        <ele>279.76</ele>
        <time>2015-09-18T16:04:22Z</time>
      </trkpt>
      <trkpt lat="43.60374" lon="3.62424">
        <ele>279.09</ele>
        <time>2015-09-18T16:04:34Z</time>
      </trkpt>
      <trkpt lat="43.60376" lon="3.62426">
        <ele>278.11</ele>
        <time>2015-09-18T16:04:36Z</time>
      </trkpt>
      <trkpt lat="43.60379" lon="3.6243">
        <ele>278.59</ele>
        <time>2015-09-18T16:04:40Z</time>
      </trkpt>
      <trkpt lat="43.60383" lon="3.62448">
        <ele>277.37</ele>
        <time>2015-09-18T16:04:53Z</time>
      </trkpt>
      <trkpt lat="43.60384" lon="3.62453">
        <ele>276.93</ele>
        <time>2015-09-18T16:04:57Z</time>
      </trkpt>
      <trkpt lat="43.60385" lon="3.62476">
        <ele>275.54</ele>
        <time>2015-09-18T16:05:14Z</time>
      </trkpt>
      <trkpt lat="43.60383" lon="3.62491">
        <ele>273.98</ele>
        <time>2015-09-18T16:05:25Z</time>
      </trkpt>
      <trkpt lat="43.60381" lon="3.625">
        <ele>273.13</ele>
        <time>2015-09-18T16:05:33Z</time>
      </trkpt>
      <trkpt lat="43.60379" lon="3.62504">
        <ele>273.46</ele>
        <time>2015-09-18T16:05:36Z</time>
      </trkpt>
      <trkpt lat="43.60376" lon="3.62522">
        <ele>271.75</ele>
        <time>2015-09-18T16:05:47Z</time>
      </trkpt>
      <trkpt lat="43.60373" lon="3.62527">
        <ele>271.36</ele>
        <time>2015-09-18T16:05:51Z</time>
      </trkpt>
      <trkpt lat="43.6037" lon="3.62533">
        <ele>271.3</ele>
        <time>2015-09-18T16:06:02Z</time>
      </trkpt>
      <trkpt lat="43.60369" lon="3.62533">
        <ele>272.09</ele>
        <time>2015-09-18T16:06:04Z</time>
      </trkpt>
      <trkpt lat="43.60353" lon="3.6252">
        <ele>270.59</ele>
        <time>2015-09-18T16:06:20Z</time>
      </trkpt>
      <trkpt lat="43.60336" lon="3.62507">
        <ele>270.4</ele>
        <time>2015-09-18T16:06:37Z</time>
      </trkpt>
      <trkpt lat="43.60319" lon="3.62495">
        <ele>269.84</ele>
        <time>2015-09-18T16:06:52Z</time>
      </trkpt>
      <trkpt lat="43.60311" lon="3.62489">
        <ele>269.81</ele>
        <time>2015-09-18T16:07:00Z</time>
      </trkpt>
      <trkpt lat="43.60309" lon="3.62488">
        <ele>269.81</ele>
        <time>2015-09-18T16:07:02Z</time>
      </trkpt>
      <trkpt lat="43.60297" lon="3.62484">
        <ele>269.01</ele>
        <time>2015-09-18T16:07:13Z</time>
      </trkpt>
      <trkpt lat="43.60287" lon="3.62484">
        <ele>268.07</ele>
        <time>2015-09-18T16:07:21Z</time>
      </trkpt>
      <trkpt lat="43.60267" lon="3.6249">
        <ele>267.9</ele>
        <time>2015-09-18T16:07:37Z</time>
      </trkpt>
      <trkpt lat="43.60254" lon="3.62495">
        <ele>267.36</ele>
        <time>2015-09-18T16:07:49Z</time>
      </trkpt>
      <trkpt lat="43.60242" lon="3.62499">
        <ele>266.51</ele>
        <time>2015-09-18T16:08:00Z</time>
      </trkpt>
      <trkpt lat="43.60219" lon="3.62508">
        <ele>266.47</ele>
        <time>2015-09-18T16:08:23Z</time>
      </trkpt>
      <trkpt lat="43.60207" lon="3.62514">
        <ele>266.39</ele>
        <time>2015-09-18T16:08:34Z</time>
      </trkpt>
      <trkpt lat="43.60191" lon="3.62522">
        <ele>266.17</ele>
        <time>2015-09-18T16:08:49Z</time>
      </trkpt>
      <trkpt lat="43.60187" lon="3.62523">
        <ele>266.61</ele>
        <time>2015-09-18T16:08:52Z</time>
      </trkpt>
      <trkpt lat="43.60174" lon="3.62526">
        <ele>266.06</ele>
        <time>2015-09-18T16:09:04Z</time>
      </trkpt>
      <trkpt lat="43.60174" lon="3.62526">
        <ele>265.83</ele>
        <time>2015-09-18T16:09:05Z</time>
      </trkpt>
      <trkpt lat="43.60162" lon="3.62526">
        <ele>265.55</ele>
        <time>2015-09-18T16:09:18Z</time>
      </trkpt>
      <trkpt lat="43.6016" lon="3.62526">
        <ele>265.86</ele>
        <time>2015-09-18T16:09:19Z</time>
      </trkpt>
      <trkpt lat="43.60142" lon="3.62533">
        <ele>264.68</ele>
        <time>2015-09-18T16:09:36Z</time>
      </trkpt>
      <trkpt lat="43.60129" lon="3.62541">
        <ele>264.85</ele>
        <time>2015-09-18T16:09:49Z</time>
      </trkpt>
      <trkpt lat="43.60126" lon="3.62542">
        <ele>265.04</ele>
        <time>2015-09-18T16:09:52Z</time>
      </trkpt>
      <trkpt lat="43.60119" lon="3.62549">
        <ele>264.98</ele>
        <time>2015-09-18T16:09:59Z</time>
      </trkpt>
      <trkpt lat="43.60116" lon="3.62553">
        <ele>264.93</ele>
        <time>2015-09-18T16:10:03Z</time>
      </trkpt>
      <trkpt lat="43.60098" lon="3.62572">
        <ele>264.79</ele>
        <time>2015-09-18T16:10:22Z</time>
      </trkpt>
      <trkpt lat="43.60084" lon="3.62594">
        <ele>264.45</ele>
        <time>2015-09-18T16:10:41Z</time>
      </trkpt>
      <trkpt lat="43.60075" lon="3.62609">
        <ele>264.59</ele>
        <time>2015-09-18T16:10:52Z</time>
      </trkpt>
      <trkpt lat="43.60064" lon="3.62625">
        <ele>264.16</ele>
        <time>2015-09-18T16:11:05Z</time>
      </trkpt>
      <trkpt lat="43.60056" lon="3.62638">
        <ele>264.42</ele>
        <time>2015-09-18T16:11:16Z</time>
      </trkpt>
      <trkpt lat="43.60055" lon="3.62639">
        <ele>264.71</ele>
        <time>2015-09-18T16:11:17Z</time>
      </trkpt>
      <trkpt lat="43.60052" lon="3.62645">
        <ele>264.23</ele>
        <time>2015-09-18T16:11:22Z</time>
      </trkpt>
      <trkpt lat="43.60051" lon="3.62646">
        <ele>264.09</ele>
        <time>2015-09-18T16:11:23Z</time>
      </trkpt>
      <trkpt lat="43.6005" lon="3.62648">
        <ele>264.42</ele>
        <time>2015-09-18T16:11:24Z</time>
      </trkpt>
      <trkpt lat="43.60049" lon="3.62649">
        <ele>264.25</ele>
        <time>2015-09-18T16:11:25Z</time>
      </trkpt>
      <trkpt lat="43.60048" lon="3.6265">
        <ele>264.49</ele>
        <time>2015-09-18T16:11:26Z</time>
      </trkpt>
      <trkpt lat="43.60047" lon="3.62652">
        <ele>264.22</ele>
        <time>2015-09-18T16:11:28Z</time>
      </trkpt>
      <trkpt lat="43.60046" lon="3.62653">
        <ele>264.12</ele>
        <time>2015-09-18T16:11:29Z</time>
      </trkpt>
      <trkpt lat="43.60038" lon="3.62666">
        <ele>264.35</ele>
        <time>2015-09-18T16:11:43Z</time>
      </trkpt>
      <trkpt lat="43.60034" lon="3.62672">
        <ele>264.5</ele>
        <time>2015-09-18T16:11:48Z</time>
      </trkpt>
      <trkpt lat="43.60033" lon="3.62673">
        <ele>265.01</ele>
        <time>2015-09-18T16:11:49Z</time>
      </trkpt>
      <trkpt lat="43.60032" lon="3.62674">
        <ele>264.89</ele>
        <time>2015-09-18T16:11:50Z</time>
      </trkpt>
      <trkpt lat="43.60031" lon="3.62675">
        <ele>264.58</ele>
        <time>2015-09-18T16:11:51Z</time>
      </trkpt>
      <trkpt lat="43.60022" lon="3.6269">
        <ele>264.47</ele>
        <time>2015-09-18T16:12:04Z</time>
      </trkpt>
      <trkpt lat="43.60011" lon="3.62709">
        <ele>264.32</ele>
        <time>2015-09-18T16:12:19Z</time>
      </trkpt>
      <trkpt lat="43.60002" lon="3.62722">
        <ele>264.03</ele>
        <time>2015-09-18T16:12:31Z</time>
      </trkpt>
      <trkpt lat="43.60001" lon="3.62724">
        <ele>263.96</ele>
        <time>2015-09-18T16:12:32Z</time>
      </trkpt>
      <trkpt lat="43.59991" lon="3.6274">
        <ele>264.32</ele>
        <time>2015-09-18T16:12:46Z</time>
      </trkpt>
      <trkpt lat="43.59982" lon="3.62755">
        <ele>263.51</ele>
        <time>2015-09-18T16:12:58Z</time>
      </trkpt>
      <trkpt lat="43.59974" lon="3.62768">
        <ele>263.48</ele>
        <time>2015-09-18T16:13:10Z</time>
      </trkpt>
      <trkpt lat="43.59964" lon="3.62784">
        <ele>263.41</ele>
        <time>2015-09-18T16:13:22Z</time>
      </trkpt>
      <trkpt lat="43.5996" lon="3.6279">
        <ele>263.64</ele>
        <time>2015-09-18T16:13:32Z</time>
      </trkpt>
      <trkpt lat="43.59959" lon="3.62792">
        <ele>263.67</ele>
        <time>2015-09-18T16:13:33Z</time>
      </trkpt>
      <trkpt lat="43.59959" lon="3.62793">
        <ele>263.54</ele>
        <time>2015-09-18T16:13:34Z</time>
      </trkpt>
      <trkpt lat="43.59942" lon="3.62821">
        <ele>262.29</ele>
        <time>2015-09-18T16:13:59Z</time>
      </trkpt>
      <trkpt lat="43.59932" lon="3.62836">
        <ele>261.82</ele>
        <time>2015-09-18T16:14:13Z</time>
      </trkpt>
      <trkpt lat="43.59929" lon="3.62841">
        <ele>262.5</ele>
        <time>2015-09-18T16:14:27Z</time>
      </trkpt>
      <trkpt lat="43.59928" lon="3.62836">
        <ele>261.61</ele>
        <time>2015-09-18T16:14:47Z</time>
      </trkpt>
      <trkpt lat="43.59929" lon="3.62836">
        <ele>261.25</ele>
        <time>2015-09-18T16:15:08Z</time>
      </trkpt>
      <trkpt lat="43.59929" lon="3.62836">
        <ele>261.15</ele>
        <time>2015-09-18T16:15:39Z</time>
      </trkpt>
      <trkpt lat="43.59927" lon="3.62836">
        <ele>261.08</ele>
        <time>2015-09-18T16:16:13Z</time>
      </trkpt>
      <trkpt lat="43.59928" lon="3.62835">
        <ele>261.54</ele>
        <time>2015-09-18T16:16:42Z</time>
      </trkpt>
      <trkpt lat="43.5993" lon="3.62836">
        <ele>261.41</ele>
        <time>2015-09-18T16:17:10Z</time>
      </trkpt>
      <trkpt lat="43.59926" lon="3.62849">
        <ele>261.82</ele>
        <time>2015-09-18T16:17:26Z</time>
      </trkpt>
      <trkpt lat="43.59919" lon="3.62857">
        <ele>261.53</ele>
        <time>2015-09-18T16:17:36Z</time>
      </trkpt>
    </trkseg>
  </trk>
</gpx>